<?xml version="1.0" encoding="UTF-8" standalone="no" ?>
<gpx xmlns="http://www.topografix.com/GPX/1/1" xmlns:xsi="http://www.w3.org/2001/XMLSchema-instance" xsi:schemaLocation="http://www.topografix.com/GPX/1/1 http://www.topografix.com/GPX/1/1/gpx.xsd" version="1.1" creator="VisuGPX - https://www.visugpx.com">
  <metadata>
    <name>81 - St Quintin </name>
    <desc><![CDATA[Cet itinéraire fait partie de la collection de EquiLiberté : www.equiliberte.org
Circuit NON (??) ACCESSIBLE aux attelages
Itinéraire vallonné très boisé sans difficultés, terrain très souple ]]></desc>
  </metadata>
  <trk>
    <name><![CDATA[81 - St Quintin ]]></name>
    <trkseg>
      <trkpt lat="43.97243" lon="2.12501">
        <ele>253</ele>
        <time>2010-07-24T13:14:34Z</time>
      </trkpt>
      <trkpt lat="43.9724" lon="2.12498">
        <ele>252</ele>
        <time>2010-07-24T13:14:54Z</time>
      </trkpt>
      <trkpt lat="43.97235" lon="2.12503">
        <ele>252</ele>
        <time>2010-07-24T13:15:06Z</time>
      </trkpt>
      <trkpt lat="43.97241" lon="2.12507">
        <ele>253</ele>
        <time>2010-07-24T13:15:18Z</time>
      </trkpt>
      <trkpt lat="43.9724" lon="2.12505">
        <ele>253</ele>
        <time>2010-07-24T13:15:21Z</time>
      </trkpt>
      <trkpt lat="43.97228" lon="2.12489">
        <ele>256</ele>
        <time>2010-07-24T13:15:35Z</time>
      </trkpt>
      <trkpt lat="43.97224" lon="2.12486">
        <ele>256</ele>
        <time>2010-07-24T13:15:39Z</time>
      </trkpt>
      <trkpt lat="43.97204" lon="2.12482">
        <ele>256</ele>
        <time>2010-07-24T13:15:56Z</time>
      </trkpt>
      <trkpt lat="43.97183" lon="2.12482">
        <ele>255</ele>
        <time>2010-07-24T13:16:13Z</time>
      </trkpt>
      <trkpt lat="43.97168" lon="2.12483">
        <ele>254</ele>
        <time>2010-07-24T13:16:28Z</time>
      </trkpt>
      <trkpt lat="43.97164" lon="2.12483">
        <ele>253</ele>
        <time>2010-07-24T13:16:41Z</time>
      </trkpt>
      <trkpt lat="43.97164" lon="2.12483">
        <ele>254</ele>
        <time>2010-07-24T13:16:55Z</time>
      </trkpt>
      <trkpt lat="43.97166" lon="2.12477">
        <ele>253</ele>
        <time>2010-07-24T13:17:48Z</time>
      </trkpt>
      <trkpt lat="43.97166" lon="2.12482">
        <ele>254</ele>
        <time>2010-07-24T13:18:06Z</time>
      </trkpt>
      <trkpt lat="43.97165" lon="2.12487">
        <ele>253</ele>
        <time>2010-07-24T13:18:22Z</time>
      </trkpt>
      <trkpt lat="43.97164" lon="2.12488">
        <ele>254</ele>
        <time>2010-07-24T13:18:41Z</time>
      </trkpt>
      <trkpt lat="43.97164" lon="2.12488">
        <ele>254</ele>
        <time>2010-07-24T13:18:43Z</time>
      </trkpt>
      <trkpt lat="43.97151" lon="2.12492">
        <ele>253</ele>
        <time>2010-07-24T13:18:59Z</time>
      </trkpt>
      <trkpt lat="43.97149" lon="2.12492">
        <ele>253</ele>
        <time>2010-07-24T13:19:01Z</time>
      </trkpt>
      <trkpt lat="43.97136" lon="2.12493">
        <ele>253</ele>
        <time>2010-07-24T13:19:11Z</time>
      </trkpt>
      <trkpt lat="43.97129" lon="2.12492">
        <ele>253</ele>
        <time>2010-07-24T13:19:18Z</time>
      </trkpt>
      <trkpt lat="43.97125" lon="2.12492">
        <ele>253</ele>
        <time>2010-07-24T13:19:21Z</time>
      </trkpt>
      <trkpt lat="43.971" lon="2.12499">
        <ele>252</ele>
        <time>2010-07-24T13:19:41Z</time>
      </trkpt>
      <trkpt lat="43.97079" lon="2.12506">
        <ele>251</ele>
        <time>2010-07-24T13:19:58Z</time>
      </trkpt>
      <trkpt lat="43.97076" lon="2.12503">
        <ele>249</ele>
        <time>2010-07-24T13:20:16Z</time>
      </trkpt>
      <trkpt lat="43.97077" lon="2.12503">
        <ele>248</ele>
        <time>2010-07-24T13:20:52Z</time>
      </trkpt>
      <trkpt lat="43.97077" lon="2.12505">
        <ele>248</ele>
        <time>2010-07-24T13:21:06Z</time>
      </trkpt>
      <trkpt lat="43.97078" lon="2.12505">
        <ele>248</ele>
        <time>2010-07-24T13:21:12Z</time>
      </trkpt>
      <trkpt lat="43.97076" lon="2.12508">
        <ele>248</ele>
        <time>2010-07-24T13:21:16Z</time>
      </trkpt>
      <trkpt lat="43.9707" lon="2.12515">
        <ele>247</ele>
        <time>2010-07-24T13:21:24Z</time>
      </trkpt>
      <trkpt lat="43.97069" lon="2.1252">
        <ele>246</ele>
        <time>2010-07-24T13:21:29Z</time>
      </trkpt>
      <trkpt lat="43.97075" lon="2.12523">
        <ele>244</ele>
        <time>2010-07-24T13:21:44Z</time>
      </trkpt>
      <trkpt lat="43.97075" lon="2.12535">
        <ele>241</ele>
        <time>2010-07-24T13:21:55Z</time>
      </trkpt>
      <trkpt lat="43.97069" lon="2.12558">
        <ele>238</ele>
        <time>2010-07-24T13:22:10Z</time>
      </trkpt>
      <trkpt lat="43.9707" lon="2.12588">
        <ele>233</ele>
        <time>2010-07-24T13:22:24Z</time>
      </trkpt>
      <trkpt lat="43.97079" lon="2.12615">
        <ele>227</ele>
        <time>2010-07-24T13:22:34Z</time>
      </trkpt>
      <trkpt lat="43.9708" lon="2.12651">
        <ele>221</ele>
        <time>2010-07-24T13:22:46Z</time>
      </trkpt>
      <trkpt lat="43.97081" lon="2.12683">
        <ele>220</ele>
        <time>2010-07-24T13:23:04Z</time>
      </trkpt>
      <trkpt lat="43.97075" lon="2.12704">
        <ele>224</ele>
        <time>2010-07-24T13:23:19Z</time>
      </trkpt>
      <trkpt lat="43.97066" lon="2.12725">
        <ele>222</ele>
        <time>2010-07-24T13:23:33Z</time>
      </trkpt>
      <trkpt lat="43.97065" lon="2.12726">
        <ele>222</ele>
        <time>2010-07-24T13:23:34Z</time>
      </trkpt>
      <trkpt lat="43.97061" lon="2.12742">
        <ele>218</ele>
        <time>2010-07-24T13:23:43Z</time>
      </trkpt>
      <trkpt lat="43.97046" lon="2.12755">
        <ele>216</ele>
        <time>2010-07-24T13:23:54Z</time>
      </trkpt>
      <trkpt lat="43.97031" lon="2.12768">
        <ele>215</ele>
        <time>2010-07-24T13:24:10Z</time>
      </trkpt>
      <trkpt lat="43.97012" lon="2.12787">
        <ele>215</ele>
        <time>2010-07-24T13:24:22Z</time>
      </trkpt>
      <trkpt lat="43.97005" lon="2.12799">
        <ele>213</ele>
        <time>2010-07-24T13:24:28Z</time>
      </trkpt>
      <trkpt lat="43.96988" lon="2.12821">
        <ele>213</ele>
        <time>2010-07-24T13:24:38Z</time>
      </trkpt>
      <trkpt lat="43.96979" lon="2.12837">
        <ele>213</ele>
        <time>2010-07-24T13:24:51Z</time>
      </trkpt>
      <trkpt lat="43.96977" lon="2.12846">
        <ele>212</ele>
        <time>2010-07-24T13:24:56Z</time>
      </trkpt>
      <trkpt lat="43.96975" lon="2.12854">
        <ele>212</ele>
        <time>2010-07-24T13:25:00Z</time>
      </trkpt>
      <trkpt lat="43.96973" lon="2.12862">
        <ele>212</ele>
        <time>2010-07-24T13:25:04Z</time>
      </trkpt>
      <trkpt lat="43.96961" lon="2.1287">
        <ele>209</ele>
        <time>2010-07-24T13:25:15Z</time>
      </trkpt>
      <trkpt lat="43.96952" lon="2.12874">
        <ele>208</ele>
        <time>2010-07-24T13:25:20Z</time>
      </trkpt>
      <trkpt lat="43.96926" lon="2.12864">
        <ele>213</ele>
        <time>2010-07-24T13:25:30Z</time>
      </trkpt>
      <trkpt lat="43.96911" lon="2.1286">
        <ele>216</ele>
        <time>2010-07-24T13:25:35Z</time>
      </trkpt>
      <trkpt lat="43.96893" lon="2.12835">
        <ele>217</ele>
        <time>2010-07-24T13:25:44Z</time>
      </trkpt>
      <trkpt lat="43.9688" lon="2.12831">
        <ele>221</ele>
        <time>2010-07-24T13:25:57Z</time>
      </trkpt>
      <trkpt lat="43.96885" lon="2.12879">
        <ele>227</ele>
        <time>2010-07-24T13:26:09Z</time>
      </trkpt>
      <trkpt lat="43.96887" lon="2.12907">
        <ele>224</ele>
        <time>2010-07-24T13:26:15Z</time>
      </trkpt>
      <trkpt lat="43.96889" lon="2.12924">
        <ele>224</ele>
        <time>2010-07-24T13:26:27Z</time>
      </trkpt>
      <trkpt lat="43.9689" lon="2.12949">
        <ele>225</ele>
        <time>2010-07-24T13:26:37Z</time>
      </trkpt>
      <trkpt lat="43.96889" lon="2.12953">
        <ele>225</ele>
        <time>2010-07-24T13:26:39Z</time>
      </trkpt>
      <trkpt lat="43.96877" lon="2.1297">
        <ele>221</ele>
        <time>2010-07-24T13:26:51Z</time>
      </trkpt>
      <trkpt lat="43.96877" lon="2.12981">
        <ele>219</ele>
        <time>2010-07-24T13:27:05Z</time>
      </trkpt>
      <trkpt lat="43.96887" lon="2.12981">
        <ele>222</ele>
        <time>2010-07-24T13:27:16Z</time>
      </trkpt>
      <trkpt lat="43.96897" lon="2.12976">
        <ele>224</ele>
        <time>2010-07-24T13:27:23Z</time>
      </trkpt>
      <trkpt lat="43.96917" lon="2.12961">
        <ele>220</ele>
        <time>2010-07-24T13:27:38Z</time>
      </trkpt>
      <trkpt lat="43.96933" lon="2.12953">
        <ele>216</ele>
        <time>2010-07-24T13:27:52Z</time>
      </trkpt>
      <trkpt lat="43.96945" lon="2.12939">
        <ele>210</ele>
        <time>2010-07-24T13:28:02Z</time>
      </trkpt>
      <trkpt lat="43.96941" lon="2.12917">
        <ele>207</ele>
        <time>2010-07-24T13:28:14Z</time>
      </trkpt>
      <trkpt lat="43.96945" lon="2.12907">
        <ele>209</ele>
        <time>2010-07-24T13:28:25Z</time>
      </trkpt>
      <trkpt lat="43.96948" lon="2.12907">
        <ele>209</ele>
        <time>2010-07-24T13:28:28Z</time>
      </trkpt>
      <trkpt lat="43.9697" lon="2.12904">
        <ele>209</ele>
        <time>2010-07-24T13:28:41Z</time>
      </trkpt>
      <trkpt lat="43.96983" lon="2.12885">
        <ele>209</ele>
        <time>2010-07-24T13:28:56Z</time>
      </trkpt>
      <trkpt lat="43.96988" lon="2.12878">
        <ele>209</ele>
        <time>2010-07-24T13:29:02Z</time>
      </trkpt>
      <trkpt lat="43.97" lon="2.12849">
        <ele>209</ele>
        <time>2010-07-24T13:29:18Z</time>
      </trkpt>
      <trkpt lat="43.97011" lon="2.12836">
        <ele>212</ele>
        <time>2010-07-24T13:29:31Z</time>
      </trkpt>
      <trkpt lat="43.97015" lon="2.12841">
        <ele>213</ele>
        <time>2010-07-24T13:29:35Z</time>
      </trkpt>
      <trkpt lat="43.97018" lon="2.12849">
        <ele>214</ele>
        <time>2010-07-24T13:29:39Z</time>
      </trkpt>
      <trkpt lat="43.97036" lon="2.12884">
        <ele>213</ele>
        <time>2010-07-24T13:29:48Z</time>
      </trkpt>
      <trkpt lat="43.97044" lon="2.12885">
        <ele>213</ele>
        <time>2010-07-24T13:29:54Z</time>
      </trkpt>
      <trkpt lat="43.97051" lon="2.12877">
        <ele>214</ele>
        <time>2010-07-24T13:30:00Z</time>
      </trkpt>
      <trkpt lat="43.97055" lon="2.12876">
        <ele>214</ele>
        <time>2010-07-24T13:30:04Z</time>
      </trkpt>
      <trkpt lat="43.97068" lon="2.12875">
        <ele>216</ele>
        <time>2010-07-24T13:30:15Z</time>
      </trkpt>
      <trkpt lat="43.97087" lon="2.12869">
        <ele>215</ele>
        <time>2010-07-24T13:30:27Z</time>
      </trkpt>
      <trkpt lat="43.97101" lon="2.12865">
        <ele>213</ele>
        <time>2010-07-24T13:30:38Z</time>
      </trkpt>
      <trkpt lat="43.97115" lon="2.1287">
        <ele>209</ele>
        <time>2010-07-24T13:30:44Z</time>
      </trkpt>
      <trkpt lat="43.97124" lon="2.12868">
        <ele>207</ele>
        <time>2010-07-24T13:30:50Z</time>
      </trkpt>
      <trkpt lat="43.97131" lon="2.12871">
        <ele>204</ele>
        <time>2010-07-24T13:30:55Z</time>
      </trkpt>
      <trkpt lat="43.9714" lon="2.12871">
        <ele>202</ele>
        <time>2010-07-24T13:30:59Z</time>
      </trkpt>
      <trkpt lat="43.97154" lon="2.12865">
        <ele>200</ele>
        <time>2010-07-24T13:31:08Z</time>
      </trkpt>
      <trkpt lat="43.97171" lon="2.12835">
        <ele>202</ele>
        <time>2010-07-24T13:31:18Z</time>
      </trkpt>
      <trkpt lat="43.97188" lon="2.12805">
        <ele>206</ele>
        <time>2010-07-24T13:31:27Z</time>
      </trkpt>
      <trkpt lat="43.97194" lon="2.12795">
        <ele>208</ele>
        <time>2010-07-24T13:31:40Z</time>
      </trkpt>
      <trkpt lat="43.97212" lon="2.12766">
        <ele>210</ele>
        <time>2010-07-24T13:31:51Z</time>
      </trkpt>
      <trkpt lat="43.97219" lon="2.12769">
        <ele>208</ele>
        <time>2010-07-24T13:32:03Z</time>
      </trkpt>
      <trkpt lat="43.97246" lon="2.1277">
        <ele>207</ele>
        <time>2010-07-24T13:32:19Z</time>
      </trkpt>
      <trkpt lat="43.97274" lon="2.12765">
        <ele>203</ele>
        <time>2010-07-24T13:32:33Z</time>
      </trkpt>
      <trkpt lat="43.97289" lon="2.12768">
        <ele>202</ele>
        <time>2010-07-24T13:32:47Z</time>
      </trkpt>
      <trkpt lat="43.97298" lon="2.12771">
        <ele>199</ele>
        <time>2010-07-24T13:32:52Z</time>
      </trkpt>
      <trkpt lat="43.97321" lon="2.12761">
        <ele>194</ele>
        <time>2010-07-24T13:33:03Z</time>
      </trkpt>
      <trkpt lat="43.97336" lon="2.12755">
        <ele>196</ele>
        <time>2010-07-24T13:33:15Z</time>
      </trkpt>
      <trkpt lat="43.97348" lon="2.12743">
        <ele>199</ele>
        <time>2010-07-24T13:33:22Z</time>
      </trkpt>
      <trkpt lat="43.97353" lon="2.12722">
        <ele>202</ele>
        <time>2010-07-24T13:33:35Z</time>
      </trkpt>
      <trkpt lat="43.97353" lon="2.12715">
        <ele>202</ele>
        <time>2010-07-24T13:33:39Z</time>
      </trkpt>
      <trkpt lat="43.97372" lon="2.12683">
        <ele>202</ele>
        <time>2010-07-24T13:33:58Z</time>
      </trkpt>
      <trkpt lat="43.9738" lon="2.12674">
        <ele>203</ele>
        <time>2010-07-24T13:34:04Z</time>
      </trkpt>
      <trkpt lat="43.97396" lon="2.12694">
        <ele>204</ele>
        <time>2010-07-24T13:34:16Z</time>
      </trkpt>
      <trkpt lat="43.97412" lon="2.12712">
        <ele>200</ele>
        <time>2010-07-24T13:34:26Z</time>
      </trkpt>
      <trkpt lat="43.97423" lon="2.12724">
        <ele>197</ele>
        <time>2010-07-24T13:34:36Z</time>
      </trkpt>
      <trkpt lat="43.97426" lon="2.12725">
        <ele>197</ele>
        <time>2010-07-24T13:34:39Z</time>
      </trkpt>
      <trkpt lat="43.97435" lon="2.12717">
        <ele>199</ele>
        <time>2010-07-24T13:34:47Z</time>
      </trkpt>
      <trkpt lat="43.9744" lon="2.12716">
        <ele>199</ele>
        <time>2010-07-24T13:34:53Z</time>
      </trkpt>
      <trkpt lat="43.97444" lon="2.12722">
        <ele>198</ele>
        <time>2010-07-24T13:34:58Z</time>
      </trkpt>
      <trkpt lat="43.9747" lon="2.12737">
        <ele>195</ele>
        <time>2010-07-24T13:35:13Z</time>
      </trkpt>
      <trkpt lat="43.97485" lon="2.12737">
        <ele>195</ele>
        <time>2010-07-24T13:35:24Z</time>
      </trkpt>
      <trkpt lat="43.97497" lon="2.12723">
        <ele>198</ele>
        <time>2010-07-24T13:35:36Z</time>
      </trkpt>
      <trkpt lat="43.97499" lon="2.12715">
        <ele>199</ele>
        <time>2010-07-24T13:35:42Z</time>
      </trkpt>
      <trkpt lat="43.97499" lon="2.12711">
        <ele>200</ele>
        <time>2010-07-24T13:35:44Z</time>
      </trkpt>
      <trkpt lat="43.97499" lon="2.12698">
        <ele>202</ele>
        <time>2010-07-24T13:35:50Z</time>
      </trkpt>
      <trkpt lat="43.97504" lon="2.1268">
        <ele>207</ele>
        <time>2010-07-24T13:36:01Z</time>
      </trkpt>
      <trkpt lat="43.97513" lon="2.12652">
        <ele>214</ele>
        <time>2010-07-24T13:36:16Z</time>
      </trkpt>
      <trkpt lat="43.97517" lon="2.1265">
        <ele>212</ele>
        <time>2010-07-24T13:36:21Z</time>
      </trkpt>
      <trkpt lat="43.97542" lon="2.12677">
        <ele>206</ele>
        <time>2010-07-24T13:36:41Z</time>
      </trkpt>
      <trkpt lat="43.97546" lon="2.1268">
        <ele>207</ele>
        <time>2010-07-24T13:36:48Z</time>
      </trkpt>
      <trkpt lat="43.9755" lon="2.12701">
        <ele>205</ele>
        <time>2010-07-24T13:37:03Z</time>
      </trkpt>
      <trkpt lat="43.9755" lon="2.1271">
        <ele>204</ele>
        <time>2010-07-24T13:37:12Z</time>
      </trkpt>
      <trkpt lat="43.97553" lon="2.12705">
        <ele>206</ele>
        <time>2010-07-24T13:37:18Z</time>
      </trkpt>
      <trkpt lat="43.97552" lon="2.12701">
        <ele>206</ele>
        <time>2010-07-24T13:37:20Z</time>
      </trkpt>
      <trkpt lat="43.9755" lon="2.12693">
        <ele>208</ele>
        <time>2010-07-24T13:37:25Z</time>
      </trkpt>
      <trkpt lat="43.97548" lon="2.12675">
        <ele>211</ele>
        <time>2010-07-24T13:37:37Z</time>
      </trkpt>
      <trkpt lat="43.9755" lon="2.12668">
        <ele>213</ele>
        <time>2010-07-24T13:37:41Z</time>
      </trkpt>
      <trkpt lat="43.97554" lon="2.12641">
        <ele>219</ele>
        <time>2010-07-24T13:37:55Z</time>
      </trkpt>
      <trkpt lat="43.97563" lon="2.12619">
        <ele>227</ele>
        <time>2010-07-24T13:38:10Z</time>
      </trkpt>
      <trkpt lat="43.97574" lon="2.1259">
        <ele>232</ele>
        <time>2010-07-24T13:38:24Z</time>
      </trkpt>
      <trkpt lat="43.97589" lon="2.1257">
        <ele>232</ele>
        <time>2010-07-24T13:38:40Z</time>
      </trkpt>
      <trkpt lat="43.97604" lon="2.12559">
        <ele>231</ele>
        <time>2010-07-24T13:38:53Z</time>
      </trkpt>
      <trkpt lat="43.97616" lon="2.12566">
        <ele>230</ele>
        <time>2010-07-24T13:39:00Z</time>
      </trkpt>
      <trkpt lat="43.97622" lon="2.12613">
        <ele>227</ele>
        <time>2010-07-24T13:39:10Z</time>
      </trkpt>
      <trkpt lat="43.97633" lon="2.12655">
        <ele>219</ele>
        <time>2010-07-24T13:39:18Z</time>
      </trkpt>
      <trkpt lat="43.9764" lon="2.1266">
        <ele>214</ele>
        <time>2010-07-24T13:39:24Z</time>
      </trkpt>
      <trkpt lat="43.97647" lon="2.12653">
        <ele>214</ele>
        <time>2010-07-24T13:39:29Z</time>
      </trkpt>
      <trkpt lat="43.9765" lon="2.1265">
        <ele>214</ele>
        <time>2010-07-24T13:39:31Z</time>
      </trkpt>
      <trkpt lat="43.97656" lon="2.12649">
        <ele>217</ele>
        <time>2010-07-24T13:39:36Z</time>
      </trkpt>
      <trkpt lat="43.97672" lon="2.12636">
        <ele>230</ele>
        <time>2010-07-24T13:39:47Z</time>
      </trkpt>
      <trkpt lat="43.97679" lon="2.12637">
        <ele>231</ele>
        <time>2010-07-24T13:39:51Z</time>
      </trkpt>
      <trkpt lat="43.97706" lon="2.12631">
        <ele>235</ele>
        <time>2010-07-24T13:40:04Z</time>
      </trkpt>
      <trkpt lat="43.97716" lon="2.12631">
        <ele>235</ele>
        <time>2010-07-24T13:40:09Z</time>
      </trkpt>
      <trkpt lat="43.97736" lon="2.12629">
        <ele>237</ele>
        <time>2010-07-24T13:40:21Z</time>
      </trkpt>
      <trkpt lat="43.97752" lon="2.12623">
        <ele>236</ele>
        <time>2010-07-24T13:40:33Z</time>
      </trkpt>
      <trkpt lat="43.97773" lon="2.12613">
        <ele>239</ele>
        <time>2010-07-24T13:40:46Z</time>
      </trkpt>
      <trkpt lat="43.97795" lon="2.12597">
        <ele>235</ele>
        <time>2010-07-24T13:40:59Z</time>
      </trkpt>
      <trkpt lat="43.97797" lon="2.12595">
        <ele>236</ele>
        <time>2010-07-24T13:41:01Z</time>
      </trkpt>
      <trkpt lat="43.97813" lon="2.1258">
        <ele>235</ele>
        <time>2010-07-24T13:41:10Z</time>
      </trkpt>
      <trkpt lat="43.97828" lon="2.12565">
        <ele>233</ele>
        <time>2010-07-24T13:41:16Z</time>
      </trkpt>
      <trkpt lat="43.97843" lon="2.12544">
        <ele>233</ele>
        <time>2010-07-24T13:41:28Z</time>
      </trkpt>
      <trkpt lat="43.97847" lon="2.12538">
        <ele>234</ele>
        <time>2010-07-24T13:41:32Z</time>
      </trkpt>
      <trkpt lat="43.97857" lon="2.1252">
        <ele>232</ele>
        <time>2010-07-24T13:41:45Z</time>
      </trkpt>
      <trkpt lat="43.97873" lon="2.12497">
        <ele>234</ele>
        <time>2010-07-24T13:42:02Z</time>
      </trkpt>
      <trkpt lat="43.97877" lon="2.12496">
        <ele>234</ele>
        <time>2010-07-24T13:42:06Z</time>
      </trkpt>
      <trkpt lat="43.97888" lon="2.12506">
        <ele>233</ele>
        <time>2010-07-24T13:42:13Z</time>
      </trkpt>
      <trkpt lat="43.979" lon="2.12517">
        <ele>230</ele>
        <time>2010-07-24T13:42:19Z</time>
      </trkpt>
      <trkpt lat="43.97921" lon="2.12536">
        <ele>227</ele>
        <time>2010-07-24T13:42:29Z</time>
      </trkpt>
      <trkpt lat="43.97928" lon="2.12542">
        <ele>226</ele>
        <time>2010-07-24T13:42:33Z</time>
      </trkpt>
      <trkpt lat="43.97938" lon="2.12542">
        <ele>225</ele>
        <time>2010-07-24T13:42:42Z</time>
      </trkpt>
      <trkpt lat="43.9795" lon="2.12538">
        <ele>221</ele>
        <time>2010-07-24T13:42:54Z</time>
      </trkpt>
      <trkpt lat="43.97951" lon="2.12538">
        <ele>221</ele>
        <time>2010-07-24T13:42:55Z</time>
      </trkpt>
      <trkpt lat="43.97968" lon="2.12528">
        <ele>220</ele>
        <time>2010-07-24T13:43:11Z</time>
      </trkpt>
      <trkpt lat="43.97985" lon="2.12541">
        <ele>216</ele>
        <time>2010-07-24T13:43:27Z</time>
      </trkpt>
      <trkpt lat="43.9798" lon="2.12559">
        <ele>211</ele>
        <time>2010-07-24T13:43:48Z</time>
      </trkpt>
      <trkpt lat="43.97982" lon="2.12562">
        <ele>209</ele>
        <time>2010-07-24T13:44:02Z</time>
      </trkpt>
      <trkpt lat="43.97982" lon="2.12568">
        <ele>206</ele>
        <time>2010-07-24T13:44:16Z</time>
      </trkpt>
      <trkpt lat="43.97975" lon="2.12581">
        <ele>205</ele>
        <time>2010-07-24T13:44:29Z</time>
      </trkpt>
      <trkpt lat="43.97972" lon="2.1259">
        <ele>204</ele>
        <time>2010-07-24T13:44:43Z</time>
      </trkpt>
      <trkpt lat="43.97969" lon="2.12602">
        <ele>205</ele>
        <time>2010-07-24T13:45:09Z</time>
      </trkpt>
      <trkpt lat="43.97967" lon="2.12613">
        <ele>207</ele>
        <time>2010-07-24T13:45:27Z</time>
      </trkpt>
      <trkpt lat="43.97959" lon="2.12629">
        <ele>209</ele>
        <time>2010-07-24T13:45:43Z</time>
      </trkpt>
      <trkpt lat="43.97951" lon="2.12637">
        <ele>209</ele>
        <time>2010-07-24T13:45:49Z</time>
      </trkpt>
      <trkpt lat="43.97935" lon="2.1265">
        <ele>208</ele>
        <time>2010-07-24T13:46:00Z</time>
      </trkpt>
      <trkpt lat="43.97929" lon="2.12654">
        <ele>208</ele>
        <time>2010-07-24T13:46:04Z</time>
      </trkpt>
      <trkpt lat="43.97918" lon="2.1268">
        <ele>208</ele>
        <time>2010-07-24T13:46:20Z</time>
      </trkpt>
      <trkpt lat="43.97909" lon="2.12699">
        <ele>204</ele>
        <time>2010-07-24T13:46:30Z</time>
      </trkpt>
      <trkpt lat="43.97903" lon="2.12708">
        <ele>202</ele>
        <time>2010-07-24T13:46:35Z</time>
      </trkpt>
      <trkpt lat="43.97894" lon="2.12716">
        <ele>200</ele>
        <time>2010-07-24T13:46:44Z</time>
      </trkpt>
      <trkpt lat="43.97893" lon="2.12719">
        <ele>200</ele>
        <time>2010-07-24T13:46:46Z</time>
      </trkpt>
      <trkpt lat="43.97872" lon="2.12732">
        <ele>199</ele>
        <time>2010-07-24T13:46:58Z</time>
      </trkpt>
      <trkpt lat="43.97848" lon="2.12742">
        <ele>193</ele>
        <time>2010-07-24T13:47:12Z</time>
      </trkpt>
      <trkpt lat="43.97847" lon="2.12743">
        <ele>192</ele>
        <time>2010-07-24T13:47:13Z</time>
      </trkpt>
      <trkpt lat="43.97832" lon="2.12757">
        <ele>187</ele>
        <time>2010-07-24T13:47:26Z</time>
      </trkpt>
      <trkpt lat="43.97824" lon="2.12769">
        <ele>186</ele>
        <time>2010-07-24T13:47:34Z</time>
      </trkpt>
      <trkpt lat="43.97819" lon="2.12786">
        <ele>185</ele>
        <time>2010-07-24T13:47:41Z</time>
      </trkpt>
      <trkpt lat="43.97806" lon="2.12795">
        <ele>183</ele>
        <time>2010-07-24T13:47:49Z</time>
      </trkpt>
      <trkpt lat="43.97784" lon="2.12806">
        <ele>180</ele>
        <time>2010-07-24T13:48:04Z</time>
      </trkpt>
      <trkpt lat="43.9778" lon="2.12805">
        <ele>186</ele>
        <time>2010-07-24T13:48:23Z</time>
      </trkpt>
      <trkpt lat="43.97774" lon="2.12806">
        <ele>188</ele>
        <time>2010-07-24T13:48:32Z</time>
      </trkpt>
      <trkpt lat="43.97745" lon="2.12813">
        <ele>184</ele>
        <time>2010-07-24T13:48:49Z</time>
      </trkpt>
      <trkpt lat="43.97733" lon="2.12821">
        <ele>178</ele>
        <time>2010-07-24T13:49:04Z</time>
      </trkpt>
      <trkpt lat="43.9773" lon="2.1282">
        <ele>177</ele>
        <time>2010-07-24T13:49:08Z</time>
      </trkpt>
      <trkpt lat="43.97701" lon="2.1282">
        <ele>170</ele>
        <time>2010-07-24T13:49:19Z</time>
      </trkpt>
      <trkpt lat="43.9768" lon="2.12826">
        <ele>163</ele>
        <time>2010-07-24T13:49:29Z</time>
      </trkpt>
      <trkpt lat="43.97677" lon="2.12827">
        <ele>164</ele>
        <time>2010-07-24T13:49:32Z</time>
      </trkpt>
      <trkpt lat="43.97669" lon="2.12825">
        <ele>165</ele>
        <time>2010-07-24T13:49:37Z</time>
      </trkpt>
      <trkpt lat="43.97665" lon="2.12826">
        <ele>165</ele>
        <time>2010-07-24T13:49:39Z</time>
      </trkpt>
      <trkpt lat="43.97633" lon="2.12838">
        <ele>177</ele>
        <time>2010-07-24T13:49:49Z</time>
      </trkpt>
      <trkpt lat="43.97627" lon="2.1285">
        <ele>185</ele>
        <time>2010-07-24T13:49:52Z</time>
      </trkpt>
      <trkpt lat="43.97619" lon="2.1287">
        <ele>196</ele>
        <time>2010-07-24T13:49:58Z</time>
      </trkpt>
      <trkpt lat="43.97616" lon="2.12879">
        <ele>204</ele>
        <time>2010-07-24T13:50:07Z</time>
      </trkpt>
      <trkpt lat="43.9761" lon="2.12883">
        <ele>207</ele>
        <time>2010-07-24T13:50:12Z</time>
      </trkpt>
      <trkpt lat="43.97607" lon="2.12889">
        <ele>209</ele>
        <time>2010-07-24T13:50:16Z</time>
      </trkpt>
      <trkpt lat="43.97597" lon="2.12906">
        <ele>213</ele>
        <time>2010-07-24T13:50:27Z</time>
      </trkpt>
      <trkpt lat="43.97584" lon="2.12917">
        <ele>214</ele>
        <time>2010-07-24T13:50:35Z</time>
      </trkpt>
      <trkpt lat="43.97575" lon="2.12919">
        <ele>214</ele>
        <time>2010-07-24T13:50:41Z</time>
      </trkpt>
      <trkpt lat="43.97566" lon="2.12922">
        <ele>215</ele>
        <time>2010-07-24T13:50:51Z</time>
      </trkpt>
      <trkpt lat="43.97546" lon="2.129">
        <ele>210</ele>
        <time>2010-07-24T13:51:02Z</time>
      </trkpt>
      <trkpt lat="43.97539" lon="2.12896">
        <ele>210</ele>
        <time>2010-07-24T13:51:05Z</time>
      </trkpt>
      <trkpt lat="43.97522" lon="2.12904">
        <ele>206</ele>
        <time>2010-07-24T13:51:16Z</time>
      </trkpt>
      <trkpt lat="43.97521" lon="2.12907">
        <ele>205</ele>
        <time>2010-07-24T13:51:18Z</time>
      </trkpt>
      <trkpt lat="43.97516" lon="2.12913">
        <ele>205</ele>
        <time>2010-07-24T13:51:25Z</time>
      </trkpt>
      <trkpt lat="43.97507" lon="2.12917">
        <ele>206</ele>
        <time>2010-07-24T13:51:34Z</time>
      </trkpt>
      <trkpt lat="43.97496" lon="2.12915">
        <ele>210</ele>
        <time>2010-07-24T13:51:40Z</time>
      </trkpt>
      <trkpt lat="43.97477" lon="2.12906">
        <ele>213</ele>
        <time>2010-07-24T13:51:49Z</time>
      </trkpt>
      <trkpt lat="43.97475" lon="2.12905">
        <ele>213</ele>
        <time>2010-07-24T13:51:50Z</time>
      </trkpt>
      <trkpt lat="43.97457" lon="2.12902">
        <ele>214</ele>
        <time>2010-07-24T13:52:01Z</time>
      </trkpt>
      <trkpt lat="43.97453" lon="2.129">
        <ele>214</ele>
        <time>2010-07-24T13:52:04Z</time>
      </trkpt>
      <trkpt lat="43.97425" lon="2.12892">
        <ele>211</ele>
        <time>2010-07-24T13:52:13Z</time>
      </trkpt>
      <trkpt lat="43.97421" lon="2.12891">
        <ele>211</ele>
        <time>2010-07-24T13:52:14Z</time>
      </trkpt>
      <trkpt lat="43.97361" lon="2.12897">
        <ele>202</ele>
        <time>2010-07-24T13:52:24Z</time>
      </trkpt>
      <trkpt lat="43.97337" lon="2.12904">
        <ele>198</ele>
        <time>2010-07-24T13:52:28Z</time>
      </trkpt>
      <trkpt lat="43.97324" lon="2.12909">
        <ele>196</ele>
        <time>2010-07-24T13:52:31Z</time>
      </trkpt>
      <trkpt lat="43.97308" lon="2.12914">
        <ele>194</ele>
        <time>2010-07-24T13:52:35Z</time>
      </trkpt>
      <trkpt lat="43.97289" lon="2.12917">
        <ele>190</ele>
        <time>2010-07-24T13:52:39Z</time>
      </trkpt>
      <trkpt lat="43.97265" lon="2.12933">
        <ele>183</ele>
        <time>2010-07-24T13:52:45Z</time>
      </trkpt>
      <trkpt lat="43.97254" lon="2.12941">
        <ele>178</ele>
        <time>2010-07-24T13:52:49Z</time>
      </trkpt>
      <trkpt lat="43.9723" lon="2.1296">
        <ele>176</ele>
        <time>2010-07-24T13:52:54Z</time>
      </trkpt>
      <trkpt lat="43.97166" lon="2.12986">
        <ele>175</ele>
        <time>2010-07-24T13:53:03Z</time>
      </trkpt>
      <trkpt lat="43.97149" lon="2.12995">
        <ele>177</ele>
        <time>2010-07-24T13:53:07Z</time>
      </trkpt>
      <trkpt lat="43.97111" lon="2.13005">
        <ele>181</ele>
        <time>2010-07-24T13:53:14Z</time>
      </trkpt>
      <trkpt lat="43.97078" lon="2.13046">
        <ele>182</ele>
        <time>2010-07-24T13:53:24Z</time>
      </trkpt>
      <trkpt lat="43.97059" lon="2.13067">
        <ele>182</ele>
        <time>2010-07-24T13:53:34Z</time>
      </trkpt>
      <trkpt lat="43.97043" lon="2.13078">
        <ele>181</ele>
        <time>2010-07-24T13:53:39Z</time>
      </trkpt>
      <trkpt lat="43.97023" lon="2.13088">
        <ele>180</ele>
        <time>2010-07-24T13:53:44Z</time>
      </trkpt>
      <trkpt lat="43.97009" lon="2.13095">
        <ele>178</ele>
        <time>2010-07-24T13:53:47Z</time>
      </trkpt>
      <trkpt lat="43.96976" lon="2.13115">
        <ele>175</ele>
        <time>2010-07-24T13:53:55Z</time>
      </trkpt>
      <trkpt lat="43.9696" lon="2.13131">
        <ele>172</ele>
        <time>2010-07-24T13:54:06Z</time>
      </trkpt>
      <trkpt lat="43.96944" lon="2.1314">
        <ele>170</ele>
        <time>2010-07-24T13:54:14Z</time>
      </trkpt>
      <trkpt lat="43.96934" lon="2.13145">
        <ele>169</ele>
        <time>2010-07-24T13:54:19Z</time>
      </trkpt>
      <trkpt lat="43.9692" lon="2.13149">
        <ele>169</ele>
        <time>2010-07-24T13:54:26Z</time>
      </trkpt>
      <trkpt lat="43.96912" lon="2.13152">
        <ele>169</ele>
        <time>2010-07-24T13:54:30Z</time>
      </trkpt>
      <trkpt lat="43.96902" lon="2.13154">
        <ele>169</ele>
        <time>2010-07-24T13:54:36Z</time>
      </trkpt>
      <trkpt lat="43.96886" lon="2.13169">
        <ele>170</ele>
        <time>2010-07-24T13:54:48Z</time>
      </trkpt>
      <trkpt lat="43.96866" lon="2.13179">
        <ele>171</ele>
        <time>2010-07-24T13:55:00Z</time>
      </trkpt>
      <trkpt lat="43.96842" lon="2.1319">
        <ele>172</ele>
        <time>2010-07-24T13:55:12Z</time>
      </trkpt>
      <trkpt lat="43.96822" lon="2.13209">
        <ele>173</ele>
        <time>2010-07-24T13:55:25Z</time>
      </trkpt>
      <trkpt lat="43.96805" lon="2.13219">
        <ele>174</ele>
        <time>2010-07-24T13:55:34Z</time>
      </trkpt>
      <trkpt lat="43.96801" lon="2.13221">
        <ele>175</ele>
        <time>2010-07-24T13:55:36Z</time>
      </trkpt>
      <trkpt lat="43.96784" lon="2.13231">
        <ele>176</ele>
        <time>2010-07-24T13:55:46Z</time>
      </trkpt>
      <trkpt lat="43.96778" lon="2.13235">
        <ele>177</ele>
        <time>2010-07-24T13:55:50Z</time>
      </trkpt>
      <trkpt lat="43.9676" lon="2.13245">
        <ele>180</ele>
        <time>2010-07-24T13:56:00Z</time>
      </trkpt>
      <trkpt lat="43.96739" lon="2.13254">
        <ele>182</ele>
        <time>2010-07-24T13:56:11Z</time>
      </trkpt>
      <trkpt lat="43.96728" lon="2.13257">
        <ele>183</ele>
        <time>2010-07-24T13:56:17Z</time>
      </trkpt>
      <trkpt lat="43.96716" lon="2.13264">
        <ele>184</ele>
        <time>2010-07-24T13:56:24Z</time>
      </trkpt>
      <trkpt lat="43.96707" lon="2.13268">
        <ele>185</ele>
        <time>2010-07-24T13:56:29Z</time>
      </trkpt>
      <trkpt lat="43.96698" lon="2.13269">
        <ele>186</ele>
        <time>2010-07-24T13:56:34Z</time>
      </trkpt>
      <trkpt lat="43.96691" lon="2.13272">
        <ele>186</ele>
        <time>2010-07-24T13:56:38Z</time>
      </trkpt>
      <trkpt lat="43.96672" lon="2.13277">
        <ele>186</ele>
        <time>2010-07-24T13:56:49Z</time>
      </trkpt>
      <trkpt lat="43.96656" lon="2.13285">
        <ele>183</ele>
        <time>2010-07-24T13:57:01Z</time>
      </trkpt>
      <trkpt lat="43.96633" lon="2.13293">
        <ele>180</ele>
        <time>2010-07-24T13:57:15Z</time>
      </trkpt>
      <trkpt lat="43.96623" lon="2.13304">
        <ele>178</ele>
        <time>2010-07-24T13:57:21Z</time>
      </trkpt>
      <trkpt lat="43.96615" lon="2.13307">
        <ele>178</ele>
        <time>2010-07-24T13:57:26Z</time>
      </trkpt>
      <trkpt lat="43.96602" lon="2.13311">
        <ele>178</ele>
        <time>2010-07-24T13:57:33Z</time>
      </trkpt>
      <trkpt lat="43.96583" lon="2.1332">
        <ele>178</ele>
        <time>2010-07-24T13:57:44Z</time>
      </trkpt>
      <trkpt lat="43.96574" lon="2.13325">
        <ele>178</ele>
        <time>2010-07-24T13:57:50Z</time>
      </trkpt>
      <trkpt lat="43.9656" lon="2.13332">
        <ele>179</ele>
        <time>2010-07-24T13:58:01Z</time>
      </trkpt>
      <trkpt lat="43.96551" lon="2.13336">
        <ele>178</ele>
        <time>2010-07-24T13:58:06Z</time>
      </trkpt>
      <trkpt lat="43.96537" lon="2.13344">
        <ele>179</ele>
        <time>2010-07-24T13:58:14Z</time>
      </trkpt>
      <trkpt lat="43.96531" lon="2.1335">
        <ele>179</ele>
        <time>2010-07-24T13:58:18Z</time>
      </trkpt>
      <trkpt lat="43.96524" lon="2.13357">
        <ele>178</ele>
        <time>2010-07-24T13:58:23Z</time>
      </trkpt>
      <trkpt lat="43.96523" lon="2.1336">
        <ele>179</ele>
        <time>2010-07-24T13:58:25Z</time>
      </trkpt>
      <trkpt lat="43.96519" lon="2.13365">
        <ele>178</ele>
        <time>2010-07-24T13:58:29Z</time>
      </trkpt>
      <trkpt lat="43.96515" lon="2.1337">
        <ele>177</ele>
        <time>2010-07-24T13:58:32Z</time>
      </trkpt>
      <trkpt lat="43.96497" lon="2.13385">
        <ele>175</ele>
        <time>2010-07-24T13:58:44Z</time>
      </trkpt>
      <trkpt lat="43.96479" lon="2.13412">
        <ele>170</ele>
        <time>2010-07-24T13:58:58Z</time>
      </trkpt>
      <trkpt lat="43.96466" lon="2.13422">
        <ele>171</ele>
        <time>2010-07-24T13:59:11Z</time>
      </trkpt>
      <trkpt lat="43.96463" lon="2.13426">
        <ele>171</ele>
        <time>2010-07-24T13:59:14Z</time>
      </trkpt>
      <trkpt lat="43.96453" lon="2.13433">
        <ele>171</ele>
        <time>2010-07-24T13:59:20Z</time>
      </trkpt>
      <trkpt lat="43.96443" lon="2.13441">
        <ele>170</ele>
        <time>2010-07-24T13:59:27Z</time>
      </trkpt>
      <trkpt lat="43.96432" lon="2.1345">
        <ele>172</ele>
        <time>2010-07-24T13:59:34Z</time>
      </trkpt>
      <trkpt lat="43.96428" lon="2.13459">
        <ele>171</ele>
        <time>2010-07-24T13:59:38Z</time>
      </trkpt>
      <trkpt lat="43.96424" lon="2.13464">
        <ele>172</ele>
        <time>2010-07-24T13:59:42Z</time>
      </trkpt>
      <trkpt lat="43.9642" lon="2.13467">
        <ele>172</ele>
        <time>2010-07-24T13:59:45Z</time>
      </trkpt>
      <trkpt lat="43.96412" lon="2.1347">
        <ele>173</ele>
        <time>2010-07-24T13:59:52Z</time>
      </trkpt>
      <trkpt lat="43.96406" lon="2.13474">
        <ele>175</ele>
        <time>2010-07-24T13:59:57Z</time>
      </trkpt>
      <trkpt lat="43.96403" lon="2.13482">
        <ele>182</ele>
        <time>2010-07-24T14:00:09Z</time>
      </trkpt>
      <trkpt lat="43.96375" lon="2.13482">
        <ele>183</ele>
        <time>2010-07-24T14:00:19Z</time>
      </trkpt>
      <trkpt lat="43.96358" lon="2.13475">
        <ele>187</ele>
        <time>2010-07-24T14:00:31Z</time>
      </trkpt>
      <trkpt lat="43.96336" lon="2.13462">
        <ele>189</ele>
        <time>2010-07-24T14:00:45Z</time>
      </trkpt>
      <trkpt lat="43.96309" lon="2.13435">
        <ele>187</ele>
        <time>2010-07-24T14:00:58Z</time>
      </trkpt>
      <trkpt lat="43.963" lon="2.13419">
        <ele>183</ele>
        <time>2010-07-24T14:01:07Z</time>
      </trkpt>
      <trkpt lat="43.96286" lon="2.13399">
        <ele>180</ele>
        <time>2010-07-24T14:01:19Z</time>
      </trkpt>
      <trkpt lat="43.96285" lon="2.13398">
        <ele>180</ele>
        <time>2010-07-24T14:01:20Z</time>
      </trkpt>
      <trkpt lat="43.96269" lon="2.13377">
        <ele>168</ele>
        <time>2010-07-24T14:01:33Z</time>
      </trkpt>
      <trkpt lat="43.96252" lon="2.13345">
        <ele>172</ele>
        <time>2010-07-24T14:01:48Z</time>
      </trkpt>
      <trkpt lat="43.96241" lon="2.13333">
        <ele>171</ele>
        <time>2010-07-24T14:01:57Z</time>
      </trkpt>
      <trkpt lat="43.96241" lon="2.13333">
        <ele>171</ele>
        <time>2010-07-24T14:01:59Z</time>
      </trkpt>
      <trkpt lat="43.96237" lon="2.13327">
        <ele>172</ele>
        <time>2010-07-24T14:02:04Z</time>
      </trkpt>
      <trkpt lat="43.9621" lon="2.13299">
        <ele>170</ele>
        <time>2010-07-24T14:02:14Z</time>
      </trkpt>
      <trkpt lat="43.96189" lon="2.13272">
        <ele>170</ele>
        <time>2010-07-24T14:02:30Z</time>
      </trkpt>
      <trkpt lat="43.96164" lon="2.1325">
        <ele>171</ele>
        <time>2010-07-24T14:02:46Z</time>
      </trkpt>
      <trkpt lat="43.96163" lon="2.13249">
        <ele>171</ele>
        <time>2010-07-24T14:02:47Z</time>
      </trkpt>
      <trkpt lat="43.96143" lon="2.13229">
        <ele>172</ele>
        <time>2010-07-24T14:02:59Z</time>
      </trkpt>
      <trkpt lat="43.96132" lon="2.13217">
        <ele>172</ele>
        <time>2010-07-24T14:03:06Z</time>
      </trkpt>
      <trkpt lat="43.96117" lon="2.13204">
        <ele>175</ele>
        <time>2010-07-24T14:03:15Z</time>
      </trkpt>
      <trkpt lat="43.96105" lon="2.13193">
        <ele>177</ele>
        <time>2010-07-24T14:03:22Z</time>
      </trkpt>
      <trkpt lat="43.96092" lon="2.13181">
        <ele>179</ele>
        <time>2010-07-24T14:03:31Z</time>
      </trkpt>
      <trkpt lat="43.96086" lon="2.13175">
        <ele>180</ele>
        <time>2010-07-24T14:03:35Z</time>
      </trkpt>
      <trkpt lat="43.96069" lon="2.13156">
        <ele>185</ele>
        <time>2010-07-24T14:03:48Z</time>
      </trkpt>
      <trkpt lat="43.96061" lon="2.13148">
        <ele>186</ele>
        <time>2010-07-24T14:03:53Z</time>
      </trkpt>
      <trkpt lat="43.96057" lon="2.13143">
        <ele>187</ele>
        <time>2010-07-24T14:03:57Z</time>
      </trkpt>
      <trkpt lat="43.96051" lon="2.13139">
        <ele>187</ele>
        <time>2010-07-24T14:04:00Z</time>
      </trkpt>
      <trkpt lat="43.96034" lon="2.13119">
        <ele>188</ele>
        <time>2010-07-24T14:04:13Z</time>
      </trkpt>
      <trkpt lat="43.96028" lon="2.13114">
        <ele>189</ele>
        <time>2010-07-24T14:04:17Z</time>
      </trkpt>
      <trkpt lat="43.96025" lon="2.13094">
        <ele>186</ele>
        <time>2010-07-24T14:04:26Z</time>
      </trkpt>
      <trkpt lat="43.96023" lon="2.13091">
        <ele>185</ele>
        <time>2010-07-24T14:04:28Z</time>
      </trkpt>
      <trkpt lat="43.96022" lon="2.13087">
        <ele>185</ele>
        <time>2010-07-24T14:04:31Z</time>
      </trkpt>
      <trkpt lat="43.96018" lon="2.13083">
        <ele>183</ele>
        <time>2010-07-24T14:04:36Z</time>
      </trkpt>
      <trkpt lat="43.95993" lon="2.13061">
        <ele>180</ele>
        <time>2010-07-24T14:04:51Z</time>
      </trkpt>
      <trkpt lat="43.95991" lon="2.13059">
        <ele>179</ele>
        <time>2010-07-24T14:04:53Z</time>
      </trkpt>
      <trkpt lat="43.95978" lon="2.13044">
        <ele>179</ele>
        <time>2010-07-24T14:05:06Z</time>
      </trkpt>
      <trkpt lat="43.95955" lon="2.13029">
        <ele>178</ele>
        <time>2010-07-24T14:05:20Z</time>
      </trkpt>
      <trkpt lat="43.95943" lon="2.13019">
        <ele>182</ele>
        <time>2010-07-24T14:05:30Z</time>
      </trkpt>
      <trkpt lat="43.95897" lon="2.13">
        <ele>188</ele>
        <time>2010-07-24T14:05:46Z</time>
      </trkpt>
      <trkpt lat="43.95863" lon="2.12999">
        <ele>178</ele>
        <time>2010-07-24T14:06:06Z</time>
      </trkpt>
      <trkpt lat="43.95843" lon="2.13">
        <ele>169</ele>
        <time>2010-07-24T14:06:21Z</time>
      </trkpt>
      <trkpt lat="43.95817" lon="2.13">
        <ele>165</ele>
        <time>2010-07-24T14:06:36Z</time>
      </trkpt>
      <trkpt lat="43.95793" lon="2.12992">
        <ele>164</ele>
        <time>2010-07-24T14:06:51Z</time>
      </trkpt>
      <trkpt lat="43.9578" lon="2.12974">
        <ele>162</ele>
        <time>2010-07-24T14:06:59Z</time>
      </trkpt>
      <trkpt lat="43.95778" lon="2.12971">
        <ele>162</ele>
        <time>2010-07-24T14:07:01Z</time>
      </trkpt>
      <trkpt lat="43.95767" lon="2.12958">
        <ele>162</ele>
        <time>2010-07-24T14:07:11Z</time>
      </trkpt>
      <trkpt lat="43.95759" lon="2.1295">
        <ele>162</ele>
        <time>2010-07-24T14:07:18Z</time>
      </trkpt>
      <trkpt lat="43.95736" lon="2.12957">
        <ele>157</ele>
        <time>2010-07-24T14:07:29Z</time>
      </trkpt>
      <trkpt lat="43.95721" lon="2.12967">
        <ele>153</ele>
        <time>2010-07-24T14:07:41Z</time>
      </trkpt>
      <trkpt lat="43.95716" lon="2.12969">
        <ele>152</ele>
        <time>2010-07-24T14:07:45Z</time>
      </trkpt>
      <trkpt lat="43.95694" lon="2.12977">
        <ele>153</ele>
        <time>2010-07-24T14:07:59Z</time>
      </trkpt>
      <trkpt lat="43.95688" lon="2.1298">
        <ele>153</ele>
        <time>2010-07-24T14:08:04Z</time>
      </trkpt>
      <trkpt lat="43.95682" lon="2.12984">
        <ele>155</ele>
        <time>2010-07-24T14:08:09Z</time>
      </trkpt>
      <trkpt lat="43.95659" lon="2.12989">
        <ele>158</ele>
        <time>2010-07-24T14:08:24Z</time>
      </trkpt>
      <trkpt lat="43.95654" lon="2.12989">
        <ele>158</ele>
        <time>2010-07-24T14:08:27Z</time>
      </trkpt>
      <trkpt lat="43.95646" lon="2.1297">
        <ele>157</ele>
        <time>2010-07-24T14:08:39Z</time>
      </trkpt>
      <trkpt lat="43.95647" lon="2.12936">
        <ele>157</ele>
        <time>2010-07-24T14:08:54Z</time>
      </trkpt>
      <trkpt lat="43.95652" lon="2.12907">
        <ele>157</ele>
        <time>2010-07-24T14:09:08Z</time>
      </trkpt>
      <trkpt lat="43.95658" lon="2.12894">
        <ele>155</ele>
        <time>2010-07-24T14:09:17Z</time>
      </trkpt>
      <trkpt lat="43.95671" lon="2.12865">
        <ele>154</ele>
        <time>2010-07-24T14:09:30Z</time>
      </trkpt>
      <trkpt lat="43.95688" lon="2.12839">
        <ele>153</ele>
        <time>2010-07-24T14:09:44Z</time>
      </trkpt>
      <trkpt lat="43.95692" lon="2.12833">
        <ele>154</ele>
        <time>2010-07-24T14:09:47Z</time>
      </trkpt>
      <trkpt lat="43.95697" lon="2.12824">
        <ele>154</ele>
        <time>2010-07-24T14:09:52Z</time>
      </trkpt>
      <trkpt lat="43.95701" lon="2.12796">
        <ele>152</ele>
        <time>2010-07-24T14:10:06Z</time>
      </trkpt>
      <trkpt lat="43.95709" lon="2.12762">
        <ele>153</ele>
        <time>2010-07-24T14:10:22Z</time>
      </trkpt>
      <trkpt lat="43.95722" lon="2.12742">
        <ele>154</ele>
        <time>2010-07-24T14:10:34Z</time>
      </trkpt>
      <trkpt lat="43.95742" lon="2.12728">
        <ele>157</ele>
        <time>2010-07-24T14:10:47Z</time>
      </trkpt>
      <trkpt lat="43.95747" lon="2.12723">
        <ele>156</ele>
        <time>2010-07-24T14:10:51Z</time>
      </trkpt>
      <trkpt lat="43.95756" lon="2.12707">
        <ele>156</ele>
        <time>2010-07-24T14:10:59Z</time>
      </trkpt>
      <trkpt lat="43.95759" lon="2.12705">
        <ele>156</ele>
        <time>2010-07-24T14:11:01Z</time>
      </trkpt>
      <trkpt lat="43.95773" lon="2.12694">
        <ele>156</ele>
        <time>2010-07-24T14:11:10Z</time>
      </trkpt>
      <trkpt lat="43.95791" lon="2.12682">
        <ele>157</ele>
        <time>2010-07-24T14:11:25Z</time>
      </trkpt>
      <trkpt lat="43.95792" lon="2.12681">
        <ele>158</ele>
        <time>2010-07-24T14:11:26Z</time>
      </trkpt>
      <trkpt lat="43.95815" lon="2.12673">
        <ele>161</ele>
        <time>2010-07-24T14:11:39Z</time>
      </trkpt>
      <trkpt lat="43.95825" lon="2.12671">
        <ele>159</ele>
        <time>2010-07-24T14:11:44Z</time>
      </trkpt>
      <trkpt lat="43.95834" lon="2.12666">
        <ele>156</ele>
        <time>2010-07-24T14:11:49Z</time>
      </trkpt>
      <trkpt lat="43.95835" lon="2.12653">
        <ele>156</ele>
        <time>2010-07-24T14:11:55Z</time>
      </trkpt>
      <trkpt lat="43.9584" lon="2.12635">
        <ele>159</ele>
        <time>2010-07-24T14:12:02Z</time>
      </trkpt>
      <trkpt lat="43.9584" lon="2.12625">
        <ele>161</ele>
        <time>2010-07-24T14:12:06Z</time>
      </trkpt>
      <trkpt lat="43.95839" lon="2.12621">
        <ele>163</ele>
        <time>2010-07-24T14:12:08Z</time>
      </trkpt>
      <trkpt lat="43.95838" lon="2.12616">
        <ele>164</ele>
        <time>2010-07-24T14:12:10Z</time>
      </trkpt>
      <trkpt lat="43.95833" lon="2.12581">
        <ele>173</ele>
        <time>2010-07-24T14:12:24Z</time>
      </trkpt>
      <trkpt lat="43.95835" lon="2.12572">
        <ele>175</ele>
        <time>2010-07-24T14:12:28Z</time>
      </trkpt>
      <trkpt lat="43.95836" lon="2.12566">
        <ele>175</ele>
        <time>2010-07-24T14:12:30Z</time>
      </trkpt>
      <trkpt lat="43.95842" lon="2.12546">
        <ele>171</ele>
        <time>2010-07-24T14:12:40Z</time>
      </trkpt>
      <trkpt lat="43.95857" lon="2.12527">
        <ele>165</ele>
        <time>2010-07-24T14:12:50Z</time>
      </trkpt>
      <trkpt lat="43.95878" lon="2.12512">
        <ele>163</ele>
        <time>2010-07-24T14:13:02Z</time>
      </trkpt>
      <trkpt lat="43.95903" lon="2.12501">
        <ele>168</ele>
        <time>2010-07-24T14:13:17Z</time>
      </trkpt>
      <trkpt lat="43.95925" lon="2.12486">
        <ele>157</ele>
        <time>2010-07-24T14:13:25Z</time>
      </trkpt>
      <trkpt lat="43.95948" lon="2.12443">
        <ele>149</ele>
        <time>2010-07-24T14:13:35Z</time>
      </trkpt>
      <trkpt lat="43.95956" lon="2.12428">
        <ele>148</ele>
        <time>2010-07-24T14:13:38Z</time>
      </trkpt>
      <trkpt lat="43.95964" lon="2.12413">
        <ele>145</ele>
        <time>2010-07-24T14:13:41Z</time>
      </trkpt>
      <trkpt lat="43.95975" lon="2.12385">
        <ele>139</ele>
        <time>2010-07-24T14:13:45Z</time>
      </trkpt>
      <trkpt lat="43.96011" lon="2.12337">
        <ele>138</ele>
        <time>2010-07-24T14:13:52Z</time>
      </trkpt>
      <trkpt lat="43.96042" lon="2.12317">
        <ele>140</ele>
        <time>2010-07-24T14:13:56Z</time>
      </trkpt>
      <trkpt lat="43.96061" lon="2.12302">
        <ele>139</ele>
        <time>2010-07-24T14:13:59Z</time>
      </trkpt>
      <trkpt lat="43.96077" lon="2.12277">
        <ele>140</ele>
        <time>2010-07-24T14:14:02Z</time>
      </trkpt>
      <trkpt lat="43.96096" lon="2.12249">
        <ele>143</ele>
        <time>2010-07-24T14:14:05Z</time>
      </trkpt>
      <trkpt lat="43.96124" lon="2.12236">
        <ele>142</ele>
        <time>2010-07-24T14:14:09Z</time>
      </trkpt>
      <trkpt lat="43.96149" lon="2.12227">
        <ele>141</ele>
        <time>2010-07-24T14:14:15Z</time>
      </trkpt>
      <trkpt lat="43.96184" lon="2.12193">
        <ele>144</ele>
        <time>2010-07-24T14:14:26Z</time>
      </trkpt>
      <trkpt lat="43.96196" lon="2.12177">
        <ele>146</ele>
        <time>2010-07-24T14:14:33Z</time>
      </trkpt>
      <trkpt lat="43.96197" lon="2.12174">
        <ele>146</ele>
        <time>2010-07-24T14:14:35Z</time>
      </trkpt>
      <trkpt lat="43.96209" lon="2.12172">
        <ele>148</ele>
        <time>2010-07-24T14:14:46Z</time>
      </trkpt>
      <trkpt lat="43.96214" lon="2.12169">
        <ele>151</ele>
        <time>2010-07-24T14:14:49Z</time>
      </trkpt>
      <trkpt lat="43.96216" lon="2.12162">
        <ele>152</ele>
        <time>2010-07-24T14:14:53Z</time>
      </trkpt>
      <trkpt lat="43.96225" lon="2.12157">
        <ele>153</ele>
        <time>2010-07-24T14:14:57Z</time>
      </trkpt>
      <trkpt lat="43.96227" lon="2.12153">
        <ele>154</ele>
        <time>2010-07-24T14:15:01Z</time>
      </trkpt>
      <trkpt lat="43.96236" lon="2.12135">
        <ele>157</ele>
        <time>2010-07-24T14:15:12Z</time>
      </trkpt>
      <trkpt lat="43.96242" lon="2.12133">
        <ele>157</ele>
        <time>2010-07-24T14:15:14Z</time>
      </trkpt>
      <trkpt lat="43.9625" lon="2.12133">
        <ele>157</ele>
        <time>2010-07-24T14:15:16Z</time>
      </trkpt>
      <trkpt lat="43.96281" lon="2.12131">
        <ele>152</ele>
        <time>2010-07-24T14:15:26Z</time>
      </trkpt>
      <trkpt lat="43.96291" lon="2.12124">
        <ele>149</ele>
        <time>2010-07-24T14:15:32Z</time>
      </trkpt>
      <trkpt lat="43.96317" lon="2.12105">
        <ele>153</ele>
        <time>2010-07-24T14:15:42Z</time>
      </trkpt>
      <trkpt lat="43.96327" lon="2.12099">
        <ele>157</ele>
        <time>2010-07-24T14:15:51Z</time>
      </trkpt>
      <trkpt lat="43.9634" lon="2.1209">
        <ele>161</ele>
        <time>2010-07-24T14:15:56Z</time>
      </trkpt>
      <trkpt lat="43.9635" lon="2.12078">
        <ele>165</ele>
        <time>2010-07-24T14:16:06Z</time>
      </trkpt>
      <trkpt lat="43.96354" lon="2.12076">
        <ele>165</ele>
        <time>2010-07-24T14:16:08Z</time>
      </trkpt>
      <trkpt lat="43.96356" lon="2.12069">
        <ele>167</ele>
        <time>2010-07-24T14:16:11Z</time>
      </trkpt>
      <trkpt lat="43.9637" lon="2.12058">
        <ele>175</ele>
        <time>2010-07-24T14:16:24Z</time>
      </trkpt>
      <trkpt lat="43.96371" lon="2.12057">
        <ele>176</ele>
        <time>2010-07-24T14:16:25Z</time>
      </trkpt>
      <trkpt lat="43.96383" lon="2.12047">
        <ele>178</ele>
        <time>2010-07-24T14:16:34Z</time>
      </trkpt>
      <trkpt lat="43.96399" lon="2.12035">
        <ele>178</ele>
        <time>2010-07-24T14:16:44Z</time>
      </trkpt>
      <trkpt lat="43.96404" lon="2.1203">
        <ele>178</ele>
        <time>2010-07-24T14:16:47Z</time>
      </trkpt>
      <trkpt lat="43.96411" lon="2.12019">
        <ele>180</ele>
        <time>2010-07-24T14:16:53Z</time>
      </trkpt>
      <trkpt lat="43.96413" lon="2.12008">
        <ele>184</ele>
        <time>2010-07-24T14:17:03Z</time>
      </trkpt>
      <trkpt lat="43.96414" lon="2.11991">
        <ele>185</ele>
        <time>2010-07-24T14:17:09Z</time>
      </trkpt>
      <trkpt lat="43.96418" lon="2.11985">
        <ele>186</ele>
        <time>2010-07-24T14:17:13Z</time>
      </trkpt>
      <trkpt lat="43.96428" lon="2.11963">
        <ele>189</ele>
        <time>2010-07-24T14:17:26Z</time>
      </trkpt>
      <trkpt lat="43.96429" lon="2.11952">
        <ele>190</ele>
        <time>2010-07-24T14:17:34Z</time>
      </trkpt>
      <trkpt lat="43.96437" lon="2.11938">
        <ele>190</ele>
        <time>2010-07-24T14:17:42Z</time>
      </trkpt>
      <trkpt lat="43.96443" lon="2.11905">
        <ele>191</ele>
        <time>2010-07-24T14:17:54Z</time>
      </trkpt>
      <trkpt lat="43.96442" lon="2.11893">
        <ele>193</ele>
        <time>2010-07-24T14:18:13Z</time>
      </trkpt>
      <trkpt lat="43.96445" lon="2.11895">
        <ele>193</ele>
        <time>2010-07-24T14:18:20Z</time>
      </trkpt>
      <trkpt lat="43.96444" lon="2.11919">
        <ele>192</ele>
        <time>2010-07-24T14:18:38Z</time>
      </trkpt>
      <trkpt lat="43.96452" lon="2.11936">
        <ele>193</ele>
        <time>2010-07-24T14:18:53Z</time>
      </trkpt>
      <trkpt lat="43.96464" lon="2.11949">
        <ele>193</ele>
        <time>2010-07-24T14:19:14Z</time>
      </trkpt>
      <trkpt lat="43.96465" lon="2.1196">
        <ele>193</ele>
        <time>2010-07-24T14:19:23Z</time>
      </trkpt>
      <trkpt lat="43.96469" lon="2.11982">
        <ele>191</ele>
        <time>2010-07-24T14:19:37Z</time>
      </trkpt>
      <trkpt lat="43.96471" lon="2.11986">
        <ele>190</ele>
        <time>2010-07-24T14:19:43Z</time>
      </trkpt>
      <trkpt lat="43.96474" lon="2.11996">
        <ele>189</ele>
        <time>2010-07-24T14:19:51Z</time>
      </trkpt>
      <trkpt lat="43.96474" lon="2.12001">
        <ele>188</ele>
        <time>2010-07-24T14:19:55Z</time>
      </trkpt>
      <trkpt lat="43.96475" lon="2.12004">
        <ele>185</ele>
        <time>2010-07-24T14:20:20Z</time>
      </trkpt>
      <trkpt lat="43.96481" lon="2.12011">
        <ele>184</ele>
        <time>2010-07-24T14:20:38Z</time>
      </trkpt>
      <trkpt lat="43.96482" lon="2.12024">
        <ele>180</ele>
        <time>2010-07-24T14:21:07Z</time>
      </trkpt>
      <trkpt lat="43.96483" lon="2.12031">
        <ele>177</ele>
        <time>2010-07-24T14:21:50Z</time>
      </trkpt>
      <trkpt lat="43.96488" lon="2.12041">
        <ele>177</ele>
        <time>2010-07-24T14:21:55Z</time>
      </trkpt>
      <trkpt lat="43.96496" lon="2.12044">
        <ele>178</ele>
        <time>2010-07-24T14:21:58Z</time>
      </trkpt>
      <trkpt lat="43.96505" lon="2.12042">
        <ele>177</ele>
        <time>2010-07-24T14:22:02Z</time>
      </trkpt>
      <trkpt lat="43.9651" lon="2.12033">
        <ele>178</ele>
        <time>2010-07-24T14:22:12Z</time>
      </trkpt>
      <trkpt lat="43.96533" lon="2.12031">
        <ele>185</ele>
        <time>2010-07-24T14:22:31Z</time>
      </trkpt>
      <trkpt lat="43.96546" lon="2.12025">
        <ele>190</ele>
        <time>2010-07-24T14:22:43Z</time>
      </trkpt>
      <trkpt lat="43.96548" lon="2.12022">
        <ele>191</ele>
        <time>2010-07-24T14:22:45Z</time>
      </trkpt>
      <trkpt lat="43.96564" lon="2.12012">
        <ele>191</ele>
        <time>2010-07-24T14:22:58Z</time>
      </trkpt>
      <trkpt lat="43.96582" lon="2.12007">
        <ele>191</ele>
        <time>2010-07-24T14:23:13Z</time>
      </trkpt>
      <trkpt lat="43.96594" lon="2.12007">
        <ele>189</ele>
        <time>2010-07-24T14:23:21Z</time>
      </trkpt>
      <trkpt lat="43.96603" lon="2.12012">
        <ele>184</ele>
        <time>2010-07-24T14:23:36Z</time>
      </trkpt>
      <trkpt lat="43.96605" lon="2.12016">
        <ele>183</ele>
        <time>2010-07-24T14:23:38Z</time>
      </trkpt>
      <trkpt lat="43.9662" lon="2.12029">
        <ele>180</ele>
        <time>2010-07-24T14:23:44Z</time>
      </trkpt>
      <trkpt lat="43.96631" lon="2.12021">
        <ele>176</ele>
        <time>2010-07-24T14:23:59Z</time>
      </trkpt>
      <trkpt lat="43.9664" lon="2.12018">
        <ele>176</ele>
        <time>2010-07-24T14:24:22Z</time>
      </trkpt>
      <trkpt lat="43.96662" lon="2.1203">
        <ele>178</ele>
        <time>2010-07-24T14:24:49Z</time>
      </trkpt>
      <trkpt lat="43.96665" lon="2.12028">
        <ele>178</ele>
        <time>2010-07-24T14:25:19Z</time>
      </trkpt>
      <trkpt lat="43.96665" lon="2.12009">
        <ele>178</ele>
        <time>2010-07-24T14:26:08Z</time>
      </trkpt>
      <trkpt lat="43.96667" lon="2.11999">
        <ele>178</ele>
        <time>2010-07-24T14:26:22Z</time>
      </trkpt>
      <trkpt lat="43.96688" lon="2.11985">
        <ele>177</ele>
        <time>2010-07-24T14:26:35Z</time>
      </trkpt>
      <trkpt lat="43.967" lon="2.11981">
        <ele>176</ele>
        <time>2010-07-24T14:26:39Z</time>
      </trkpt>
      <trkpt lat="43.96715" lon="2.11966">
        <ele>176</ele>
        <time>2010-07-24T14:26:51Z</time>
      </trkpt>
      <trkpt lat="43.96729" lon="2.11958">
        <ele>178</ele>
        <time>2010-07-24T14:27:02Z</time>
      </trkpt>
      <trkpt lat="43.9675" lon="2.11957">
        <ele>176</ele>
        <time>2010-07-24T14:27:15Z</time>
      </trkpt>
      <trkpt lat="43.96765" lon="2.1196">
        <ele>172</ele>
        <time>2010-07-24T14:27:29Z</time>
      </trkpt>
      <trkpt lat="43.96773" lon="2.11956">
        <ele>168</ele>
        <time>2010-07-24T14:28:10Z</time>
      </trkpt>
      <trkpt lat="43.96811" lon="2.11942">
        <ele>165</ele>
        <time>2010-07-24T14:28:20Z</time>
      </trkpt>
      <trkpt lat="43.96825" lon="2.11936">
        <ele>163</ele>
        <time>2010-07-24T14:28:24Z</time>
      </trkpt>
      <trkpt lat="43.9684" lon="2.11926">
        <ele>152</ele>
        <time>2010-07-24T14:28:29Z</time>
      </trkpt>
      <trkpt lat="43.96844" lon="2.11916">
        <ele>155</ele>
        <time>2010-07-24T14:28:32Z</time>
      </trkpt>
      <trkpt lat="43.96865" lon="2.11904">
        <ele>155</ele>
        <time>2010-07-24T14:28:42Z</time>
      </trkpt>
      <trkpt lat="43.96892" lon="2.11875">
        <ele>153</ele>
        <time>2010-07-24T14:28:50Z</time>
      </trkpt>
      <trkpt lat="43.96912" lon="2.11853">
        <ele>156</ele>
        <time>2010-07-24T14:28:58Z</time>
      </trkpt>
      <trkpt lat="43.96913" lon="2.11848">
        <ele>158</ele>
        <time>2010-07-24T14:29:00Z</time>
      </trkpt>
      <trkpt lat="43.96916" lon="2.11838">
        <ele>160</ele>
        <time>2010-07-24T14:29:04Z</time>
      </trkpt>
      <trkpt lat="43.96942" lon="2.11816">
        <ele>155</ele>
        <time>2010-07-24T14:29:13Z</time>
      </trkpt>
      <trkpt lat="43.96969" lon="2.11785">
        <ele>159</ele>
        <time>2010-07-24T14:29:23Z</time>
      </trkpt>
      <trkpt lat="43.96987" lon="2.11765">
        <ele>160</ele>
        <time>2010-07-24T14:29:31Z</time>
      </trkpt>
      <trkpt lat="43.97001" lon="2.11757">
        <ele>157</ele>
        <time>2010-07-24T14:29:35Z</time>
      </trkpt>
      <trkpt lat="43.97016" lon="2.11742">
        <ele>155</ele>
        <time>2010-07-24T14:29:49Z</time>
      </trkpt>
      <trkpt lat="43.97022" lon="2.11736">
        <ele>154</ele>
        <time>2010-07-24T14:29:52Z</time>
      </trkpt>
      <trkpt lat="43.97036" lon="2.11725">
        <ele>155</ele>
        <time>2010-07-24T14:30:01Z</time>
      </trkpt>
      <trkpt lat="43.97037" lon="2.11712">
        <ele>156</ele>
        <time>2010-07-24T14:30:06Z</time>
      </trkpt>
      <trkpt lat="43.97039" lon="2.117">
        <ele>156</ele>
        <time>2010-07-24T14:30:11Z</time>
      </trkpt>
      <trkpt lat="43.9705" lon="2.11684">
        <ele>154</ele>
        <time>2010-07-24T14:30:17Z</time>
      </trkpt>
      <trkpt lat="43.97064" lon="2.11679">
        <ele>157</ele>
        <time>2010-07-24T14:30:23Z</time>
      </trkpt>
      <trkpt lat="43.97078" lon="2.11674">
        <ele>159</ele>
        <time>2010-07-24T14:30:31Z</time>
      </trkpt>
      <trkpt lat="43.97083" lon="2.11668">
        <ele>160</ele>
        <time>2010-07-24T14:30:34Z</time>
      </trkpt>
      <trkpt lat="43.97092" lon="2.11657">
        <ele>164</ele>
        <time>2010-07-24T14:30:45Z</time>
      </trkpt>
      <trkpt lat="43.971" lon="2.11648">
        <ele>170</ele>
        <time>2010-07-24T14:30:57Z</time>
      </trkpt>
      <trkpt lat="43.97108" lon="2.11633">
        <ele>174</ele>
        <time>2010-07-24T14:31:08Z</time>
      </trkpt>
      <trkpt lat="43.97122" lon="2.1161">
        <ele>176</ele>
        <time>2010-07-24T14:31:17Z</time>
      </trkpt>
      <trkpt lat="43.97131" lon="2.11601">
        <ele>177</ele>
        <time>2010-07-24T14:31:34Z</time>
      </trkpt>
      <trkpt lat="43.97134" lon="2.11598">
        <ele>178</ele>
        <time>2010-07-24T14:31:43Z</time>
      </trkpt>
      <trkpt lat="43.97154" lon="2.11582">
        <ele>182</ele>
        <time>2010-07-24T14:31:52Z</time>
      </trkpt>
      <trkpt lat="43.97161" lon="2.11584">
        <ele>182</ele>
        <time>2010-07-24T14:31:57Z</time>
      </trkpt>
      <trkpt lat="43.97169" lon="2.11577">
        <ele>179</ele>
        <time>2010-07-24T14:32:04Z</time>
      </trkpt>
      <trkpt lat="43.97174" lon="2.11518">
        <ele>178</ele>
        <time>2010-07-24T14:32:13Z</time>
      </trkpt>
      <trkpt lat="43.97175" lon="2.11504">
        <ele>180</ele>
        <time>2010-07-24T14:32:15Z</time>
      </trkpt>
      <trkpt lat="43.97175" lon="2.11493">
        <ele>179</ele>
        <time>2010-07-24T14:32:17Z</time>
      </trkpt>
      <trkpt lat="43.97191" lon="2.11468">
        <ele>180</ele>
        <time>2010-07-24T14:32:25Z</time>
      </trkpt>
      <trkpt lat="43.972" lon="2.11463">
        <ele>180</ele>
        <time>2010-07-24T14:32:41Z</time>
      </trkpt>
      <trkpt lat="43.97225" lon="2.11438">
        <ele>178</ele>
        <time>2010-07-24T14:32:50Z</time>
      </trkpt>
      <trkpt lat="43.97255" lon="2.11404">
        <ele>173</ele>
        <time>2010-07-24T14:32:59Z</time>
      </trkpt>
      <trkpt lat="43.9726" lon="2.11388">
        <ele>175</ele>
        <time>2010-07-24T14:33:10Z</time>
      </trkpt>
      <trkpt lat="43.97258" lon="2.11383">
        <ele>175</ele>
        <time>2010-07-24T14:33:13Z</time>
      </trkpt>
      <trkpt lat="43.97248" lon="2.11366">
        <ele>177</ele>
        <time>2010-07-24T14:33:19Z</time>
      </trkpt>
      <trkpt lat="43.97253" lon="2.11358">
        <ele>179</ele>
        <time>2010-07-24T14:33:25Z</time>
      </trkpt>
      <trkpt lat="43.97268" lon="2.11343">
        <ele>177</ele>
        <time>2010-07-24T14:33:35Z</time>
      </trkpt>
      <trkpt lat="43.97275" lon="2.11345">
        <ele>178</ele>
        <time>2010-07-24T14:33:39Z</time>
      </trkpt>
      <trkpt lat="43.97289" lon="2.11363">
        <ele>180</ele>
        <time>2010-07-24T14:33:51Z</time>
      </trkpt>
      <trkpt lat="43.97303" lon="2.11385">
        <ele>186</ele>
        <time>2010-07-24T14:34:06Z</time>
      </trkpt>
      <trkpt lat="43.97306" lon="2.11394">
        <ele>185</ele>
        <time>2010-07-24T14:34:21Z</time>
      </trkpt>
      <trkpt lat="43.97297" lon="2.11412">
        <ele>186</ele>
        <time>2010-07-24T14:34:27Z</time>
      </trkpt>
      <trkpt lat="43.97292" lon="2.11427">
        <ele>186</ele>
        <time>2010-07-24T14:34:35Z</time>
      </trkpt>
      <trkpt lat="43.97292" lon="2.11429">
        <ele>187</ele>
        <time>2010-07-24T14:34:37Z</time>
      </trkpt>
      <trkpt lat="43.97286" lon="2.11437">
        <ele>187</ele>
        <time>2010-07-24T14:34:42Z</time>
      </trkpt>
      <trkpt lat="43.97277" lon="2.11453">
        <ele>189</ele>
        <time>2010-07-24T14:34:51Z</time>
      </trkpt>
      <trkpt lat="43.97279" lon="2.11458">
        <ele>190</ele>
        <time>2010-07-24T14:34:54Z</time>
      </trkpt>
      <trkpt lat="43.97282" lon="2.1146">
        <ele>190</ele>
        <time>2010-07-24T14:34:56Z</time>
      </trkpt>
      <trkpt lat="43.97282" lon="2.11467">
        <ele>193</ele>
        <time>2010-07-24T14:35:07Z</time>
      </trkpt>
      <trkpt lat="43.97282" lon="2.11466">
        <ele>193</ele>
        <time>2010-07-24T14:35:08Z</time>
      </trkpt>
      <trkpt lat="43.97298" lon="2.11451">
        <ele>194</ele>
        <time>2010-07-24T14:35:16Z</time>
      </trkpt>
      <trkpt lat="43.97326" lon="2.11452">
        <ele>204</ele>
        <time>2010-07-24T14:35:28Z</time>
      </trkpt>
      <trkpt lat="43.97348" lon="2.11463">
        <ele>211</ele>
        <time>2010-07-24T14:35:39Z</time>
      </trkpt>
      <trkpt lat="43.97364" lon="2.11465">
        <ele>215</ele>
        <time>2010-07-24T14:35:50Z</time>
      </trkpt>
      <trkpt lat="43.97394" lon="2.11471">
        <ele>219</ele>
        <time>2010-07-24T14:36:01Z</time>
      </trkpt>
      <trkpt lat="43.97409" lon="2.11487">
        <ele>222</ele>
        <time>2010-07-24T14:36:11Z</time>
      </trkpt>
      <trkpt lat="43.97411" lon="2.11494">
        <ele>223</ele>
        <time>2010-07-24T14:36:17Z</time>
      </trkpt>
      <trkpt lat="43.97412" lon="2.11507">
        <ele>225</ele>
        <time>2010-07-24T14:36:24Z</time>
      </trkpt>
      <trkpt lat="43.97414" lon="2.11522">
        <ele>227</ele>
        <time>2010-07-24T14:36:29Z</time>
      </trkpt>
      <trkpt lat="43.97415" lon="2.11535">
        <ele>228</ele>
        <time>2010-07-24T14:36:34Z</time>
      </trkpt>
      <trkpt lat="43.97416" lon="2.1154">
        <ele>229</ele>
        <time>2010-07-24T14:36:36Z</time>
      </trkpt>
      <trkpt lat="43.97422" lon="2.11554">
        <ele>230</ele>
        <time>2010-07-24T14:36:42Z</time>
      </trkpt>
      <trkpt lat="43.97428" lon="2.11566">
        <ele>230</ele>
        <time>2010-07-24T14:36:46Z</time>
      </trkpt>
      <trkpt lat="43.97428" lon="2.11573">
        <ele>230</ele>
        <time>2010-07-24T14:36:50Z</time>
      </trkpt>
      <trkpt lat="43.97428" lon="2.11589">
        <ele>231</ele>
        <time>2010-07-24T14:36:58Z</time>
      </trkpt>
      <trkpt lat="43.97427" lon="2.11592">
        <ele>231</ele>
        <time>2010-07-24T14:37:00Z</time>
      </trkpt>
      <trkpt lat="43.97428" lon="2.11604">
        <ele>231</ele>
        <time>2010-07-24T14:37:05Z</time>
      </trkpt>
      <trkpt lat="43.97431" lon="2.1162">
        <ele>229</ele>
        <time>2010-07-24T14:37:11Z</time>
      </trkpt>
      <trkpt lat="43.97435" lon="2.11625">
        <ele>230</ele>
        <time>2010-07-24T14:37:15Z</time>
      </trkpt>
      <trkpt lat="43.97429" lon="2.11644">
        <ele>232</ele>
        <time>2010-07-24T14:37:25Z</time>
      </trkpt>
      <trkpt lat="43.97429" lon="2.1165">
        <ele>233</ele>
        <time>2010-07-24T14:37:27Z</time>
      </trkpt>
      <trkpt lat="43.97435" lon="2.11661">
        <ele>234</ele>
        <time>2010-07-24T14:37:30Z</time>
      </trkpt>
      <trkpt lat="43.97451" lon="2.11667">
        <ele>240</ele>
        <time>2010-07-24T14:37:44Z</time>
      </trkpt>
      <trkpt lat="43.97453" lon="2.11686">
        <ele>244</ele>
        <time>2010-07-24T14:37:54Z</time>
      </trkpt>
      <trkpt lat="43.97451" lon="2.11701">
        <ele>246</ele>
        <time>2010-07-24T14:38:00Z</time>
      </trkpt>
      <trkpt lat="43.97449" lon="2.11717">
        <ele>246</ele>
        <time>2010-07-24T14:38:06Z</time>
      </trkpt>
      <trkpt lat="43.97445" lon="2.11732">
        <ele>247</ele>
        <time>2010-07-24T14:38:11Z</time>
      </trkpt>
      <trkpt lat="43.97442" lon="2.11739">
        <ele>248</ele>
        <time>2010-07-24T14:38:16Z</time>
      </trkpt>
      <trkpt lat="43.97442" lon="2.11755">
        <ele>249</ele>
        <time>2010-07-24T14:38:24Z</time>
      </trkpt>
      <trkpt lat="43.9744" lon="2.11762">
        <ele>249</ele>
        <time>2010-07-24T14:38:28Z</time>
      </trkpt>
      <trkpt lat="43.97438" lon="2.11767">
        <ele>249</ele>
        <time>2010-07-24T14:38:31Z</time>
      </trkpt>
      <trkpt lat="43.97436" lon="2.11776">
        <ele>249</ele>
        <time>2010-07-24T14:38:36Z</time>
      </trkpt>
      <trkpt lat="43.97434" lon="2.11782">
        <ele>249</ele>
        <time>2010-07-24T14:38:39Z</time>
      </trkpt>
      <trkpt lat="43.97432" lon="2.11797">
        <ele>248</ele>
        <time>2010-07-24T14:38:46Z</time>
      </trkpt>
      <trkpt lat="43.97431" lon="2.11806">
        <ele>249</ele>
        <time>2010-07-24T14:38:50Z</time>
      </trkpt>
      <trkpt lat="43.97421" lon="2.11823">
        <ele>251</ele>
        <time>2010-07-24T14:39:02Z</time>
      </trkpt>
      <trkpt lat="43.97418" lon="2.11829">
        <ele>251</ele>
        <time>2010-07-24T14:39:05Z</time>
      </trkpt>
      <trkpt lat="43.9741" lon="2.11852">
        <ele>250</ele>
        <time>2010-07-24T14:39:12Z</time>
      </trkpt>
      <trkpt lat="43.97408" lon="2.11872">
        <ele>251</ele>
        <time>2010-07-24T14:39:18Z</time>
      </trkpt>
      <trkpt lat="43.97422" lon="2.11895">
        <ele>253</ele>
        <time>2010-07-24T14:39:32Z</time>
      </trkpt>
      <trkpt lat="43.97434" lon="2.11911">
        <ele>256</ele>
        <time>2010-07-24T14:39:44Z</time>
      </trkpt>
      <trkpt lat="43.97437" lon="2.11916">
        <ele>257</ele>
        <time>2010-07-24T14:39:48Z</time>
      </trkpt>
      <trkpt lat="43.97452" lon="2.11934">
        <ele>257</ele>
        <time>2010-07-24T14:40:03Z</time>
      </trkpt>
      <trkpt lat="43.97458" lon="2.11943">
        <ele>259</ele>
        <time>2010-07-24T14:40:12Z</time>
      </trkpt>
      <trkpt lat="43.97473" lon="2.11968">
        <ele>261</ele>
        <time>2010-07-24T14:40:30Z</time>
      </trkpt>
      <trkpt lat="43.97487" lon="2.11985">
        <ele>264</ele>
        <time>2010-07-24T14:40:43Z</time>
      </trkpt>
      <trkpt lat="43.97503" lon="2.11999">
        <ele>267</ele>
        <time>2010-07-24T14:40:56Z</time>
      </trkpt>
      <trkpt lat="43.9752" lon="2.11999">
        <ele>266</ele>
        <time>2010-07-24T14:41:09Z</time>
      </trkpt>
      <trkpt lat="43.9754" lon="2.11997">
        <ele>261</ele>
        <time>2010-07-24T14:41:22Z</time>
      </trkpt>
      <trkpt lat="43.9755" lon="2.11995">
        <ele>259</ele>
        <time>2010-07-24T14:41:29Z</time>
      </trkpt>
      <trkpt lat="43.9757" lon="2.11992">
        <ele>261</ele>
        <time>2010-07-24T14:41:43Z</time>
      </trkpt>
      <trkpt lat="43.97577" lon="2.11991">
        <ele>261</ele>
        <time>2010-07-24T14:41:48Z</time>
      </trkpt>
      <trkpt lat="43.97598" lon="2.11987">
        <ele>263</ele>
        <time>2010-07-24T14:42:04Z</time>
      </trkpt>
      <trkpt lat="43.976" lon="2.11987">
        <ele>263</ele>
        <time>2010-07-24T14:42:09Z</time>
      </trkpt>
      <trkpt lat="43.97611" lon="2.11994">
        <ele>261</ele>
        <time>2010-07-24T14:42:14Z</time>
      </trkpt>
      <trkpt lat="43.97632" lon="2.1201">
        <ele>261</ele>
        <time>2010-07-24T14:42:26Z</time>
      </trkpt>
      <trkpt lat="43.97648" lon="2.12011">
        <ele>261</ele>
        <time>2010-07-24T14:42:39Z</time>
      </trkpt>
      <trkpt lat="43.97661" lon="2.12017">
        <ele>264</ele>
        <time>2010-07-24T14:42:50Z</time>
      </trkpt>
      <trkpt lat="43.97663" lon="2.1202">
        <ele>264</ele>
        <time>2010-07-24T14:42:53Z</time>
      </trkpt>
      <trkpt lat="43.97689" lon="2.12031">
        <ele>269</ele>
        <time>2010-07-24T14:43:07Z</time>
      </trkpt>
      <trkpt lat="43.97696" lon="2.12034">
        <ele>270</ele>
        <time>2010-07-24T14:43:09Z</time>
      </trkpt>
      <trkpt lat="43.97719" lon="2.12061">
        <ele>271</ele>
        <time>2010-07-24T14:43:15Z</time>
      </trkpt>
      <trkpt lat="43.97723" lon="2.12063">
        <ele>272</ele>
        <time>2010-07-24T14:43:18Z</time>
      </trkpt>
      <trkpt lat="43.9773" lon="2.12087">
        <ele>271</ele>
        <time>2010-07-24T14:43:28Z</time>
      </trkpt>
      <trkpt lat="43.97743" lon="2.1211">
        <ele>269</ele>
        <time>2010-07-24T14:43:37Z</time>
      </trkpt>
      <trkpt lat="43.97745" lon="2.12123">
        <ele>270</ele>
        <time>2010-07-24T14:43:41Z</time>
      </trkpt>
      <trkpt lat="43.9775" lon="2.12136">
        <ele>270</ele>
        <time>2010-07-24T14:43:44Z</time>
      </trkpt>
      <trkpt lat="43.97753" lon="2.12147">
        <ele>270</ele>
        <time>2010-07-24T14:43:48Z</time>
      </trkpt>
      <trkpt lat="43.97761" lon="2.12158">
        <ele>269</ele>
        <time>2010-07-24T14:43:59Z</time>
      </trkpt>
      <trkpt lat="43.97783" lon="2.12156">
        <ele>267</ele>
        <time>2010-07-24T14:44:08Z</time>
      </trkpt>
      <trkpt lat="43.97784" lon="2.12156">
        <ele>266</ele>
        <time>2010-07-24T14:44:09Z</time>
      </trkpt>
      <trkpt lat="43.97789" lon="2.12155">
        <ele>265</ele>
        <time>2010-07-24T14:44:13Z</time>
      </trkpt>
      <trkpt lat="43.978" lon="2.12153">
        <ele>262</ele>
        <time>2010-07-24T14:44:20Z</time>
      </trkpt>
      <trkpt lat="43.97818" lon="2.1215">
        <ele>258</ele>
        <time>2010-07-24T14:44:32Z</time>
      </trkpt>
      <trkpt lat="43.97843" lon="2.12148">
        <ele>252</ele>
        <time>2010-07-24T14:44:48Z</time>
      </trkpt>
      <trkpt lat="43.9787" lon="2.12143">
        <ele>246</ele>
        <time>2010-07-24T14:45:06Z</time>
      </trkpt>
      <trkpt lat="43.97886" lon="2.12142">
        <ele>246</ele>
        <time>2010-07-24T14:45:17Z</time>
      </trkpt>
      <trkpt lat="43.97902" lon="2.1214">
        <ele>244</ele>
        <time>2010-07-24T14:45:28Z</time>
      </trkpt>
      <trkpt lat="43.97934" lon="2.12134">
        <ele>247</ele>
        <time>2010-07-24T14:45:49Z</time>
      </trkpt>
      <trkpt lat="43.97963" lon="2.12128">
        <ele>253</ele>
        <time>2010-07-24T14:46:07Z</time>
      </trkpt>
      <trkpt lat="43.9798" lon="2.12117">
        <ele>254</ele>
        <time>2010-07-24T14:46:19Z</time>
      </trkpt>
      <trkpt lat="43.97998" lon="2.12105">
        <ele>253</ele>
        <time>2010-07-24T14:46:33Z</time>
      </trkpt>
      <trkpt lat="43.98019" lon="2.12094">
        <ele>251</ele>
        <time>2010-07-24T14:46:49Z</time>
      </trkpt>
      <trkpt lat="43.98046" lon="2.12085">
        <ele>252</ele>
        <time>2010-07-24T14:47:07Z</time>
      </trkpt>
      <trkpt lat="43.98063" lon="2.12069">
        <ele>250</ele>
        <time>2010-07-24T14:47:26Z</time>
      </trkpt>
      <trkpt lat="43.98065" lon="2.12063">
        <ele>251</ele>
        <time>2010-07-24T14:47:33Z</time>
      </trkpt>
      <trkpt lat="43.98065" lon="2.12054">
        <ele>252</ele>
        <time>2010-07-24T14:47:37Z</time>
      </trkpt>
      <trkpt lat="43.98045" lon="2.12055">
        <ele>252</ele>
        <time>2010-07-24T14:47:56Z</time>
      </trkpt>
      <trkpt lat="43.98023" lon="2.12033">
        <ele>255</ele>
        <time>2010-07-24T14:48:07Z</time>
      </trkpt>
      <trkpt lat="43.98017" lon="2.12021">
        <ele>254</ele>
        <time>2010-07-24T14:48:13Z</time>
      </trkpt>
      <trkpt lat="43.98008" lon="2.12002">
        <ele>255</ele>
        <time>2010-07-24T14:48:22Z</time>
      </trkpt>
      <trkpt lat="43.98005" lon="2.11993">
        <ele>257</ele>
        <time>2010-07-24T14:48:36Z</time>
      </trkpt>
      <trkpt lat="43.98004" lon="2.11984">
        <ele>257</ele>
        <time>2010-07-24T14:48:42Z</time>
      </trkpt>
      <trkpt lat="43.98002" lon="2.11961">
        <ele>256</ele>
        <time>2010-07-24T14:48:57Z</time>
      </trkpt>
      <trkpt lat="43.98002" lon="2.11954">
        <ele>256</ele>
        <time>2010-07-24T14:49:11Z</time>
      </trkpt>
      <trkpt lat="43.98001" lon="2.11951">
        <ele>257</ele>
        <time>2010-07-24T14:49:22Z</time>
      </trkpt>
      <trkpt lat="43.97999" lon="2.11927">
        <ele>259</ele>
        <time>2010-07-24T14:49:35Z</time>
      </trkpt>
      <trkpt lat="43.97998" lon="2.11889">
        <ele>261</ele>
        <time>2010-07-24T14:49:45Z</time>
      </trkpt>
      <trkpt lat="43.98007" lon="2.11842">
        <ele>263</ele>
        <time>2010-07-24T14:49:55Z</time>
      </trkpt>
      <trkpt lat="43.9801" lon="2.11795">
        <ele>262</ele>
        <time>2010-07-24T14:50:04Z</time>
      </trkpt>
      <trkpt lat="43.98009" lon="2.11759">
        <ele>256</ele>
        <time>2010-07-24T14:50:13Z</time>
      </trkpt>
      <trkpt lat="43.98003" lon="2.11746">
        <ele>255</ele>
        <time>2010-07-24T14:50:16Z</time>
      </trkpt>
      <trkpt lat="43.97996" lon="2.11726">
        <ele>252</ele>
        <time>2010-07-24T14:50:19Z</time>
      </trkpt>
      <trkpt lat="43.97982" lon="2.11679">
        <ele>240</ele>
        <time>2010-07-24T14:50:28Z</time>
      </trkpt>
      <trkpt lat="43.97971" lon="2.11674">
        <ele>234</ele>
        <time>2010-07-24T14:50:31Z</time>
      </trkpt>
      <trkpt lat="43.97955" lon="2.11658">
        <ele>232</ele>
        <time>2010-07-24T14:50:38Z</time>
      </trkpt>
      <trkpt lat="43.9795" lon="2.11646">
        <ele>230</ele>
        <time>2010-07-24T14:50:50Z</time>
      </trkpt>
      <trkpt lat="43.97942" lon="2.11614">
        <ele>230</ele>
        <time>2010-07-24T14:50:58Z</time>
      </trkpt>
      <trkpt lat="43.97945" lon="2.11599">
        <ele>229</ele>
        <time>2010-07-24T14:51:03Z</time>
      </trkpt>
      <trkpt lat="43.97958" lon="2.11595">
        <ele>227</ele>
        <time>2010-07-24T14:51:06Z</time>
      </trkpt>
      <trkpt lat="43.97984" lon="2.11595">
        <ele>221</ele>
        <time>2010-07-24T14:51:18Z</time>
      </trkpt>
      <trkpt lat="43.98001" lon="2.11601">
        <ele>223</ele>
        <time>2010-07-24T14:51:32Z</time>
      </trkpt>
      <trkpt lat="43.98018" lon="2.11604">
        <ele>224</ele>
        <time>2010-07-24T14:51:45Z</time>
      </trkpt>
      <trkpt lat="43.98033" lon="2.11614">
        <ele>219</ele>
        <time>2010-07-24T14:51:50Z</time>
      </trkpt>
      <trkpt lat="43.9804" lon="2.11615">
        <ele>220</ele>
        <time>2010-07-24T14:52:03Z</time>
      </trkpt>
      <trkpt lat="43.98046" lon="2.11615">
        <ele>217</ele>
        <time>2010-07-24T14:52:11Z</time>
      </trkpt>
      <trkpt lat="43.98062" lon="2.11611">
        <ele>212</ele>
        <time>2010-07-24T14:52:18Z</time>
      </trkpt>
      <trkpt lat="43.98077" lon="2.11621">
        <ele>209</ele>
        <time>2010-07-24T14:52:23Z</time>
      </trkpt>
      <trkpt lat="43.9809" lon="2.11635">
        <ele>203</ele>
        <time>2010-07-24T14:52:29Z</time>
      </trkpt>
      <trkpt lat="43.98096" lon="2.11639">
        <ele>201</ele>
        <time>2010-07-24T14:52:32Z</time>
      </trkpt>
      <trkpt lat="43.98102" lon="2.11644">
        <ele>198</ele>
        <time>2010-07-24T14:52:36Z</time>
      </trkpt>
      <trkpt lat="43.98118" lon="2.11662">
        <ele>199</ele>
        <time>2010-07-24T14:52:43Z</time>
      </trkpt>
      <trkpt lat="43.98136" lon="2.11699">
        <ele>205</ele>
        <time>2010-07-24T14:52:52Z</time>
      </trkpt>
      <trkpt lat="43.98141" lon="2.11713">
        <ele>210</ele>
        <time>2010-07-24T14:52:55Z</time>
      </trkpt>
      <trkpt lat="43.98148" lon="2.11724">
        <ele>212</ele>
        <time>2010-07-24T14:52:59Z</time>
      </trkpt>
      <trkpt lat="43.98174" lon="2.11727">
        <ele>210</ele>
        <time>2010-07-24T14:53:07Z</time>
      </trkpt>
      <trkpt lat="43.98195" lon="2.11742">
        <ele>210</ele>
        <time>2010-07-24T14:53:17Z</time>
      </trkpt>
      <trkpt lat="43.98239" lon="2.11761">
        <ele>208</ele>
        <time>2010-07-24T14:53:28Z</time>
      </trkpt>
      <trkpt lat="43.98282" lon="2.1177">
        <ele>204</ele>
        <time>2010-07-24T14:53:37Z</time>
      </trkpt>
      <trkpt lat="43.98312" lon="2.1177">
        <ele>207</ele>
        <time>2010-07-24T14:53:47Z</time>
      </trkpt>
      <trkpt lat="43.98339" lon="2.11764">
        <ele>212</ele>
        <time>2010-07-24T14:54:00Z</time>
      </trkpt>
      <trkpt lat="43.98365" lon="2.11755">
        <ele>214</ele>
        <time>2010-07-24T14:54:08Z</time>
      </trkpt>
      <trkpt lat="43.98382" lon="2.11749">
        <ele>216</ele>
        <time>2010-07-24T14:54:13Z</time>
      </trkpt>
      <trkpt lat="43.98403" lon="2.11737">
        <ele>215</ele>
        <time>2010-07-24T14:54:23Z</time>
      </trkpt>
      <trkpt lat="43.98406" lon="2.11735">
        <ele>216</ele>
        <time>2010-07-24T14:54:24Z</time>
      </trkpt>
      <trkpt lat="43.98432" lon="2.11722">
        <ele>217</ele>
        <time>2010-07-24T14:54:35Z</time>
      </trkpt>
      <trkpt lat="43.98431" lon="2.11723">
        <ele>217</ele>
        <time>2010-07-24T14:54:39Z</time>
      </trkpt>
      <trkpt lat="43.98424" lon="2.11735">
        <ele>217</ele>
        <time>2010-07-24T14:54:50Z</time>
      </trkpt>
      <trkpt lat="43.98414" lon="2.11749">
        <ele>218</ele>
        <time>2010-07-24T14:55:00Z</time>
      </trkpt>
      <trkpt lat="43.98409" lon="2.11751">
        <ele>218</ele>
        <time>2010-07-24T14:55:03Z</time>
      </trkpt>
      <trkpt lat="43.98391" lon="2.11754">
        <ele>220</ele>
        <time>2010-07-24T14:55:13Z</time>
      </trkpt>
      <trkpt lat="43.98386" lon="2.11757">
        <ele>220</ele>
        <time>2010-07-24T14:55:16Z</time>
      </trkpt>
      <trkpt lat="43.98381" lon="2.11759">
        <ele>220</ele>
        <time>2010-07-24T14:55:19Z</time>
      </trkpt>
      <trkpt lat="43.98373" lon="2.11763">
        <ele>218</ele>
        <time>2010-07-24T14:55:25Z</time>
      </trkpt>
      <trkpt lat="43.98371" lon="2.11766">
        <ele>218</ele>
        <time>2010-07-24T14:55:28Z</time>
      </trkpt>
      <trkpt lat="43.98362" lon="2.11772">
        <ele>217</ele>
        <time>2010-07-24T14:55:34Z</time>
      </trkpt>
      <trkpt lat="43.98356" lon="2.11774">
        <ele>217</ele>
        <time>2010-07-24T14:55:38Z</time>
      </trkpt>
      <trkpt lat="43.98347" lon="2.11774">
        <ele>217</ele>
        <time>2010-07-24T14:55:43Z</time>
      </trkpt>
      <trkpt lat="43.98327" lon="2.11776">
        <ele>218</ele>
        <time>2010-07-24T14:55:53Z</time>
      </trkpt>
      <trkpt lat="43.98322" lon="2.11778">
        <ele>218</ele>
        <time>2010-07-24T14:55:56Z</time>
      </trkpt>
      <trkpt lat="43.98307" lon="2.11785">
        <ele>218</ele>
        <time>2010-07-24T14:56:06Z</time>
      </trkpt>
      <trkpt lat="43.98297" lon="2.11783">
        <ele>219</ele>
        <time>2010-07-24T14:56:12Z</time>
      </trkpt>
      <trkpt lat="43.98259" lon="2.11772">
        <ele>225</ele>
        <time>2010-07-24T14:56:25Z</time>
      </trkpt>
      <trkpt lat="43.98245" lon="2.11769">
        <ele>225</ele>
        <time>2010-07-24T14:56:31Z</time>
      </trkpt>
      <trkpt lat="43.9824" lon="2.11763">
        <ele>224</ele>
        <time>2010-07-24T14:56:44Z</time>
      </trkpt>
      <trkpt lat="43.98232" lon="2.11762">
        <ele>224</ele>
        <time>2010-07-24T14:56:49Z</time>
      </trkpt>
      <trkpt lat="43.98215" lon="2.11757">
        <ele>222</ele>
        <time>2010-07-24T14:57:00Z</time>
      </trkpt>
      <trkpt lat="43.9821" lon="2.1175">
        <ele>223</ele>
        <time>2010-07-24T14:57:05Z</time>
      </trkpt>
      <trkpt lat="43.98205" lon="2.11724">
        <ele>225</ele>
        <time>2010-07-24T14:57:14Z</time>
      </trkpt>
      <trkpt lat="43.98202" lon="2.11723">
        <ele>226</ele>
        <time>2010-07-24T14:57:16Z</time>
      </trkpt>
      <trkpt lat="43.9818" lon="2.11705">
        <ele>236</ele>
        <time>2010-07-24T14:57:27Z</time>
      </trkpt>
      <trkpt lat="43.98159" lon="2.11668">
        <ele>241</ele>
        <time>2010-07-24T14:57:36Z</time>
      </trkpt>
      <trkpt lat="43.98151" lon="2.11638">
        <ele>242</ele>
        <time>2010-07-24T14:57:43Z</time>
      </trkpt>
      <trkpt lat="43.98128" lon="2.11601">
        <ele>227</ele>
        <time>2010-07-24T14:57:57Z</time>
      </trkpt>
      <trkpt lat="43.98127" lon="2.11572">
        <ele>221</ele>
        <time>2010-07-24T14:58:02Z</time>
      </trkpt>
      <trkpt lat="43.98131" lon="2.11544">
        <ele>216</ele>
        <time>2010-07-24T14:58:06Z</time>
      </trkpt>
      <trkpt lat="43.98135" lon="2.11521">
        <ele>213</ele>
        <time>2010-07-24T14:58:09Z</time>
      </trkpt>
      <trkpt lat="43.98147" lon="2.11504">
        <ele>209</ele>
        <time>2010-07-24T14:58:13Z</time>
      </trkpt>
      <trkpt lat="43.98156" lon="2.11493">
        <ele>206</ele>
        <time>2010-07-24T14:58:19Z</time>
      </trkpt>
      <trkpt lat="43.9818" lon="2.11456">
        <ele>204</ele>
        <time>2010-07-24T14:58:26Z</time>
      </trkpt>
      <trkpt lat="43.98194" lon="2.11439">
        <ele>203</ele>
        <time>2010-07-24T14:58:37Z</time>
      </trkpt>
      <trkpt lat="43.98203" lon="2.11429">
        <ele>203</ele>
        <time>2010-07-24T14:58:45Z</time>
      </trkpt>
      <trkpt lat="43.98214" lon="2.11419">
        <ele>203</ele>
        <time>2010-07-24T14:58:57Z</time>
      </trkpt>
      <trkpt lat="43.98216" lon="2.11419">
        <ele>201</ele>
        <time>2010-07-24T14:59:09Z</time>
      </trkpt>
      <trkpt lat="43.98213" lon="2.11424">
        <ele>201</ele>
        <time>2010-07-24T14:59:16Z</time>
      </trkpt>
      <trkpt lat="43.98208" lon="2.11449">
        <ele>200</ele>
        <time>2010-07-24T14:59:34Z</time>
      </trkpt>
      <trkpt lat="43.98205" lon="2.11458">
        <ele>199</ele>
        <time>2010-07-24T14:59:40Z</time>
      </trkpt>
      <trkpt lat="43.9819" lon="2.11481">
        <ele>197</ele>
        <time>2010-07-24T14:59:51Z</time>
      </trkpt>
      <trkpt lat="43.98187" lon="2.11491">
        <ele>197</ele>
        <time>2010-07-24T14:59:56Z</time>
      </trkpt>
      <trkpt lat="43.98175" lon="2.11502">
        <ele>195</ele>
        <time>2010-07-24T15:00:07Z</time>
      </trkpt>
      <trkpt lat="43.98175" lon="2.11495">
        <ele>195</ele>
        <time>2010-07-24T15:00:11Z</time>
      </trkpt>
      <trkpt lat="43.9819" lon="2.11461">
        <ele>195</ele>
        <time>2010-07-24T15:00:30Z</time>
      </trkpt>
      <trkpt lat="43.98191" lon="2.11457">
        <ele>196</ele>
        <time>2010-07-24T15:00:31Z</time>
      </trkpt>
      <trkpt lat="43.98195" lon="2.11434">
        <ele>200</ele>
        <time>2010-07-24T15:00:40Z</time>
      </trkpt>
      <trkpt lat="43.98195" lon="2.1142">
        <ele>202</ele>
        <time>2010-07-24T15:00:46Z</time>
      </trkpt>
      <trkpt lat="43.98201" lon="2.11409">
        <ele>202</ele>
        <time>2010-07-24T15:00:50Z</time>
      </trkpt>
      <trkpt lat="43.98204" lon="2.11403">
        <ele>202</ele>
        <time>2010-07-24T15:00:54Z</time>
      </trkpt>
      <trkpt lat="43.98198" lon="2.11383">
        <ele>206</ele>
        <time>2010-07-24T15:01:07Z</time>
      </trkpt>
      <trkpt lat="43.98197" lon="2.11382">
        <ele>206</ele>
        <time>2010-07-24T15:01:08Z</time>
      </trkpt>
      <trkpt lat="43.98195" lon="2.11381">
        <ele>207</ele>
        <time>2010-07-24T15:01:10Z</time>
      </trkpt>
      <trkpt lat="43.9819" lon="2.11378">
        <ele>208</ele>
        <time>2010-07-24T15:01:13Z</time>
      </trkpt>
      <trkpt lat="43.98188" lon="2.1136">
        <ele>211</ele>
        <time>2010-07-24T15:01:21Z</time>
      </trkpt>
      <trkpt lat="43.98185" lon="2.11327">
        <ele>217</ele>
        <time>2010-07-24T15:01:33Z</time>
      </trkpt>
      <trkpt lat="43.98187" lon="2.1132">
        <ele>219</ele>
        <time>2010-07-24T15:01:35Z</time>
      </trkpt>
      <trkpt lat="43.98189" lon="2.11306">
        <ele>222</ele>
        <time>2010-07-24T15:01:41Z</time>
      </trkpt>
      <trkpt lat="43.98191" lon="2.11291">
        <ele>224</ele>
        <time>2010-07-24T15:01:47Z</time>
      </trkpt>
      <trkpt lat="43.98192" lon="2.11287">
        <ele>225</ele>
        <time>2010-07-24T15:01:49Z</time>
      </trkpt>
      <trkpt lat="43.98196" lon="2.11268">
        <ele>227</ele>
        <time>2010-07-24T15:01:59Z</time>
      </trkpt>
      <trkpt lat="43.982" lon="2.11262">
        <ele>227</ele>
        <time>2010-07-24T15:02:02Z</time>
      </trkpt>
      <trkpt lat="43.98201" lon="2.11258">
        <ele>226</ele>
        <time>2010-07-24T15:02:04Z</time>
      </trkpt>
      <trkpt lat="43.98185" lon="2.11247">
        <ele>227</ele>
        <time>2010-07-24T15:02:13Z</time>
      </trkpt>
      <trkpt lat="43.98178" lon="2.11243">
        <ele>227</ele>
        <time>2010-07-24T15:02:20Z</time>
      </trkpt>
      <trkpt lat="43.98175" lon="2.11234">
        <ele>227</ele>
        <time>2010-07-24T15:02:25Z</time>
      </trkpt>
      <trkpt lat="43.98172" lon="2.11227">
        <ele>229</ele>
        <time>2010-07-24T15:02:29Z</time>
      </trkpt>
      <trkpt lat="43.98162" lon="2.11209">
        <ele>238</ele>
        <time>2010-07-24T15:02:36Z</time>
      </trkpt>
      <trkpt lat="43.98148" lon="2.11155">
        <ele>245</ele>
        <time>2010-07-24T15:02:42Z</time>
      </trkpt>
      <trkpt lat="43.98153" lon="2.11112">
        <ele>251</ele>
        <time>2010-07-24T15:02:48Z</time>
      </trkpt>
      <trkpt lat="43.98168" lon="2.11089">
        <ele>253</ele>
        <time>2010-07-24T15:02:53Z</time>
      </trkpt>
      <trkpt lat="43.98175" lon="2.1108">
        <ele>254</ele>
        <time>2010-07-24T15:02:55Z</time>
      </trkpt>
      <trkpt lat="43.98203" lon="2.11026">
        <ele>260</ele>
        <time>2010-07-24T15:03:04Z</time>
      </trkpt>
      <trkpt lat="43.9821" lon="2.10989">
        <ele>262</ele>
        <time>2010-07-24T15:03:09Z</time>
      </trkpt>
      <trkpt lat="43.98215" lon="2.10956">
        <ele>262</ele>
        <time>2010-07-24T15:03:14Z</time>
      </trkpt>
      <trkpt lat="43.98213" lon="2.10882">
        <ele>262</ele>
        <time>2010-07-24T15:03:21Z</time>
      </trkpt>
      <trkpt lat="43.98215" lon="2.10842">
        <ele>260</ele>
        <time>2010-07-24T15:03:29Z</time>
      </trkpt>
      <trkpt lat="43.98216" lon="2.10838">
        <ele>260</ele>
        <time>2010-07-24T15:03:30Z</time>
      </trkpt>
      <trkpt lat="43.98235" lon="2.10811">
        <ele>258</ele>
        <time>2010-07-24T15:03:44Z</time>
      </trkpt>
      <trkpt lat="43.98238" lon="2.10807">
        <ele>259</ele>
        <time>2010-07-24T15:03:52Z</time>
      </trkpt>
      <trkpt lat="43.98239" lon="2.10801">
        <ele>260</ele>
        <time>2010-07-24T15:03:55Z</time>
      </trkpt>
      <trkpt lat="43.9823" lon="2.10804">
        <ele>259</ele>
        <time>2010-07-24T15:04:05Z</time>
      </trkpt>
      <trkpt lat="43.98214" lon="2.10812">
        <ele>259</ele>
        <time>2010-07-24T15:04:18Z</time>
      </trkpt>
      <trkpt lat="43.98183" lon="2.10807">
        <ele>257</ele>
        <time>2010-07-24T15:04:38Z</time>
      </trkpt>
      <trkpt lat="43.98163" lon="2.10793">
        <ele>256</ele>
        <time>2010-07-24T15:04:53Z</time>
      </trkpt>
      <trkpt lat="43.98147" lon="2.10771">
        <ele>256</ele>
        <time>2010-07-24T15:05:09Z</time>
      </trkpt>
      <trkpt lat="43.98136" lon="2.1074">
        <ele>253</ele>
        <time>2010-07-24T15:05:21Z</time>
      </trkpt>
      <trkpt lat="43.98128" lon="2.10726">
        <ele>252</ele>
        <time>2010-07-24T15:05:31Z</time>
      </trkpt>
      <trkpt lat="43.98114" lon="2.107">
        <ele>250</ele>
        <time>2010-07-24T15:05:47Z</time>
      </trkpt>
      <trkpt lat="43.98113" lon="2.10665">
        <ele>247</ele>
        <time>2010-07-24T15:06:05Z</time>
      </trkpt>
      <trkpt lat="43.98119" lon="2.10634">
        <ele>244</ele>
        <time>2010-07-24T15:06:21Z</time>
      </trkpt>
      <trkpt lat="43.98116" lon="2.10606">
        <ele>242</ele>
        <time>2010-07-24T15:06:36Z</time>
      </trkpt>
      <trkpt lat="43.9812" lon="2.10593">
        <ele>242</ele>
        <time>2010-07-24T15:06:46Z</time>
      </trkpt>
      <trkpt lat="43.9813" lon="2.10576">
        <ele>240</ele>
        <time>2010-07-24T15:07:00Z</time>
      </trkpt>
      <trkpt lat="43.98129" lon="2.10576">
        <ele>241</ele>
        <time>2010-07-24T15:07:04Z</time>
      </trkpt>
      <trkpt lat="43.98131" lon="2.10566">
        <ele>240</ele>
        <time>2010-07-24T15:07:08Z</time>
      </trkpt>
      <trkpt lat="43.98136" lon="2.10547">
        <ele>236</ele>
        <time>2010-07-24T15:07:13Z</time>
      </trkpt>
      <trkpt lat="43.98151" lon="2.1052">
        <ele>227</ele>
        <time>2010-07-24T15:07:21Z</time>
      </trkpt>
      <trkpt lat="43.98145" lon="2.10475">
        <ele>223</ele>
        <time>2010-07-24T15:07:30Z</time>
      </trkpt>
      <trkpt lat="43.9815" lon="2.10463">
        <ele>223</ele>
        <time>2010-07-24T15:07:34Z</time>
      </trkpt>
      <trkpt lat="43.98172" lon="2.10419">
        <ele>225</ele>
        <time>2010-07-24T15:07:45Z</time>
      </trkpt>
      <trkpt lat="43.98195" lon="2.1038">
        <ele>225</ele>
        <time>2010-07-24T15:07:56Z</time>
      </trkpt>
      <trkpt lat="43.98197" lon="2.10377">
        <ele>225</ele>
        <time>2010-07-24T15:07:57Z</time>
      </trkpt>
      <trkpt lat="43.98198" lon="2.10365">
        <ele>224</ele>
        <time>2010-07-24T15:08:00Z</time>
      </trkpt>
      <trkpt lat="43.98194" lon="2.10356">
        <ele>224</ele>
        <time>2010-07-24T15:08:04Z</time>
      </trkpt>
      <trkpt lat="43.9817" lon="2.10342">
        <ele>226</ele>
        <time>2010-07-24T15:08:15Z</time>
      </trkpt>
      <trkpt lat="43.98167" lon="2.1034">
        <ele>227</ele>
        <time>2010-07-24T15:08:21Z</time>
      </trkpt>
      <trkpt lat="43.98165" lon="2.10331">
        <ele>228</ele>
        <time>2010-07-24T15:08:26Z</time>
      </trkpt>
      <trkpt lat="43.98169" lon="2.10318">
        <ele>228</ele>
        <time>2010-07-24T15:08:29Z</time>
      </trkpt>
      <trkpt lat="43.98238" lon="2.10231">
        <ele>224</ele>
        <time>2010-07-24T15:08:41Z</time>
      </trkpt>
      <trkpt lat="43.98252" lon="2.10211">
        <ele>225</ele>
        <time>2010-07-24T15:08:44Z</time>
      </trkpt>
      <trkpt lat="43.98267" lon="2.1017">
        <ele>227</ele>
        <time>2010-07-24T15:08:52Z</time>
      </trkpt>
      <trkpt lat="43.98262" lon="2.10146">
        <ele>227</ele>
        <time>2010-07-24T15:08:57Z</time>
      </trkpt>
      <trkpt lat="43.98219" lon="2.10105">
        <ele>235</ele>
        <time>2010-07-24T15:09:05Z</time>
      </trkpt>
      <trkpt lat="43.98199" lon="2.10064">
        <ele>242</ele>
        <time>2010-07-24T15:09:16Z</time>
      </trkpt>
      <trkpt lat="43.98181" lon="2.10026">
        <ele>253</ele>
        <time>2010-07-24T15:09:27Z</time>
      </trkpt>
      <trkpt lat="43.98167" lon="2.10002">
        <ele>259</ele>
        <time>2010-07-24T15:09:39Z</time>
      </trkpt>
      <trkpt lat="43.98165" lon="2.1">
        <ele>259</ele>
        <time>2010-07-24T15:09:40Z</time>
      </trkpt>
      <trkpt lat="43.98152" lon="2.09992">
        <ele>262</ele>
        <time>2010-07-24T15:09:45Z</time>
      </trkpt>
      <trkpt lat="43.98127" lon="2.09974">
        <ele>267</ele>
        <time>2010-07-24T15:09:55Z</time>
      </trkpt>
      <trkpt lat="43.98127" lon="2.09965">
        <ele>269</ele>
        <time>2010-07-24T15:10:01Z</time>
      </trkpt>
      <trkpt lat="43.9813" lon="2.09944">
        <ele>272</ele>
        <time>2010-07-24T15:10:08Z</time>
      </trkpt>
      <trkpt lat="43.98132" lon="2.09927">
        <ele>277</ele>
        <time>2010-07-24T15:10:15Z</time>
      </trkpt>
      <trkpt lat="43.98128" lon="2.09928">
        <ele>278</ele>
        <time>2010-07-24T15:10:19Z</time>
      </trkpt>
      <trkpt lat="43.98126" lon="2.09932">
        <ele>279</ele>
        <time>2010-07-24T15:10:22Z</time>
      </trkpt>
      <trkpt lat="43.98117" lon="2.0995">
        <ele>278</ele>
        <time>2010-07-24T15:10:32Z</time>
      </trkpt>
      <trkpt lat="43.98112" lon="2.09962">
        <ele>277</ele>
        <time>2010-07-24T15:10:40Z</time>
      </trkpt>
      <trkpt lat="43.98111" lon="2.09966">
        <ele>277</ele>
        <time>2010-07-24T15:10:43Z</time>
      </trkpt>
      <trkpt lat="43.98107" lon="2.09978">
        <ele>278</ele>
        <time>2010-07-24T15:10:48Z</time>
      </trkpt>
      <trkpt lat="43.98103" lon="2.09988">
        <ele>277</ele>
        <time>2010-07-24T15:10:54Z</time>
      </trkpt>
      <trkpt lat="43.98091" lon="2.10012">
        <ele>275</ele>
        <time>2010-07-24T15:11:07Z</time>
      </trkpt>
      <trkpt lat="43.98088" lon="2.10016">
        <ele>275</ele>
        <time>2010-07-24T15:11:10Z</time>
      </trkpt>
      <trkpt lat="43.98081" lon="2.10034">
        <ele>270</ele>
        <time>2010-07-24T15:11:20Z</time>
      </trkpt>
      <trkpt lat="43.9807" lon="2.10052">
        <ele>266</ele>
        <time>2010-07-24T15:11:32Z</time>
      </trkpt>
      <trkpt lat="43.98065" lon="2.10074">
        <ele>264</ele>
        <time>2010-07-24T15:11:43Z</time>
      </trkpt>
      <trkpt lat="43.98054" lon="2.10113">
        <ele>260</ele>
        <time>2010-07-24T15:11:53Z</time>
      </trkpt>
      <trkpt lat="43.98033" lon="2.1017">
        <ele>258</ele>
        <time>2010-07-24T15:12:06Z</time>
      </trkpt>
      <trkpt lat="43.98019" lon="2.10181">
        <ele>256</ele>
        <time>2010-07-24T15:12:17Z</time>
      </trkpt>
      <trkpt lat="43.98016" lon="2.10185">
        <ele>255</ele>
        <time>2010-07-24T15:12:19Z</time>
      </trkpt>
      <trkpt lat="43.97997" lon="2.10199">
        <ele>251</ele>
        <time>2010-07-24T15:12:32Z</time>
      </trkpt>
      <trkpt lat="43.97975" lon="2.10216">
        <ele>247</ele>
        <time>2010-07-24T15:12:46Z</time>
      </trkpt>
      <trkpt lat="43.97958" lon="2.10225">
        <ele>245</ele>
        <time>2010-07-24T15:12:59Z</time>
      </trkpt>
      <trkpt lat="43.97938" lon="2.10241">
        <ele>242</ele>
        <time>2010-07-24T15:13:15Z</time>
      </trkpt>
      <trkpt lat="43.97929" lon="2.10247">
        <ele>242</ele>
        <time>2010-07-24T15:13:26Z</time>
      </trkpt>
      <trkpt lat="43.97906" lon="2.10245">
        <ele>237</ele>
        <time>2010-07-24T15:13:40Z</time>
      </trkpt>
      <trkpt lat="43.97897" lon="2.10239">
        <ele>233</ele>
        <time>2010-07-24T15:13:48Z</time>
      </trkpt>
      <trkpt lat="43.97898" lon="2.10221">
        <ele>231</ele>
        <time>2010-07-24T15:13:56Z</time>
      </trkpt>
      <trkpt lat="43.97907" lon="2.10183">
        <ele>231</ele>
        <time>2010-07-24T15:14:15Z</time>
      </trkpt>
      <trkpt lat="43.97906" lon="2.10178">
        <ele>231</ele>
        <time>2010-07-24T15:14:18Z</time>
      </trkpt>
      <trkpt lat="43.97896" lon="2.10164">
        <ele>229</ele>
        <time>2010-07-24T15:14:32Z</time>
      </trkpt>
      <trkpt lat="43.97884" lon="2.10137">
        <ele>225</ele>
        <time>2010-07-24T15:14:50Z</time>
      </trkpt>
      <trkpt lat="43.97869" lon="2.1013">
        <ele>224</ele>
        <time>2010-07-24T15:15:01Z</time>
      </trkpt>
      <trkpt lat="43.97849" lon="2.1012">
        <ele>220</ele>
        <time>2010-07-24T15:15:16Z</time>
      </trkpt>
      <trkpt lat="43.97848" lon="2.10119">
        <ele>220</ele>
        <time>2010-07-24T15:15:17Z</time>
      </trkpt>
      <trkpt lat="43.97846" lon="2.10114">
        <ele>219</ele>
        <time>2010-07-24T15:15:21Z</time>
      </trkpt>
      <trkpt lat="43.97851" lon="2.1005">
        <ele>221</ele>
        <time>2010-07-24T15:15:33Z</time>
      </trkpt>
      <trkpt lat="43.97853" lon="2.10032">
        <ele>221</ele>
        <time>2010-07-24T15:15:35Z</time>
      </trkpt>
      <trkpt lat="43.97855" lon="2.09998">
        <ele>223</ele>
        <time>2010-07-24T15:15:39Z</time>
      </trkpt>
      <trkpt lat="43.97857" lon="2.09969">
        <ele>226</ele>
        <time>2010-07-24T15:15:45Z</time>
      </trkpt>
      <trkpt lat="43.97864" lon="2.09952">
        <ele>227</ele>
        <time>2010-07-24T15:15:48Z</time>
      </trkpt>
      <trkpt lat="43.9787" lon="2.09931">
        <ele>230</ele>
        <time>2010-07-24T15:15:52Z</time>
      </trkpt>
      <trkpt lat="43.97879" lon="2.09913">
        <ele>231</ele>
        <time>2010-07-24T15:15:55Z</time>
      </trkpt>
      <trkpt lat="43.97918" lon="2.09822">
        <ele>232</ele>
        <time>2010-07-24T15:16:04Z</time>
      </trkpt>
      <trkpt lat="43.97936" lon="2.09752">
        <ele>231</ele>
        <time>2010-07-24T15:16:09Z</time>
      </trkpt>
      <trkpt lat="43.97953" lon="2.09694">
        <ele>231</ele>
        <time>2010-07-24T15:16:14Z</time>
      </trkpt>
      <trkpt lat="43.97951" lon="2.09555">
        <ele>233</ele>
        <time>2010-07-24T15:16:24Z</time>
      </trkpt>
      <trkpt lat="43.97948" lon="2.0948">
        <ele>235</ele>
        <time>2010-07-24T15:16:30Z</time>
      </trkpt>
      <trkpt lat="43.9795" lon="2.09403">
        <ele>237</ele>
        <time>2010-07-24T15:16:37Z</time>
      </trkpt>
      <trkpt lat="43.97955" lon="2.09367">
        <ele>238</ele>
        <time>2010-07-24T15:16:41Z</time>
      </trkpt>
      <trkpt lat="43.97972" lon="2.09321">
        <ele>240</ele>
        <time>2010-07-24T15:16:46Z</time>
      </trkpt>
      <trkpt lat="43.97983" lon="2.09295">
        <ele>241</ele>
        <time>2010-07-24T15:16:49Z</time>
      </trkpt>
      <trkpt lat="43.9802" lon="2.09227">
        <ele>249</ele>
        <time>2010-07-24T15:16:58Z</time>
      </trkpt>
      <trkpt lat="43.98051" lon="2.09172">
        <ele>251</ele>
        <time>2010-07-24T15:17:05Z</time>
      </trkpt>
      <trkpt lat="43.98062" lon="2.09154">
        <ele>252</ele>
        <time>2010-07-24T15:17:08Z</time>
      </trkpt>
      <trkpt lat="43.98077" lon="2.09132">
        <ele>249</ele>
        <time>2010-07-24T15:17:13Z</time>
      </trkpt>
      <trkpt lat="43.98087" lon="2.09126">
        <ele>247</ele>
        <time>2010-07-24T15:17:15Z</time>
      </trkpt>
      <trkpt lat="43.98106" lon="2.09123">
        <ele>248</ele>
        <time>2010-07-24T15:17:18Z</time>
      </trkpt>
      <trkpt lat="43.98143" lon="2.09121">
        <ele>254</ele>
        <time>2010-07-24T15:17:28Z</time>
      </trkpt>
      <trkpt lat="43.98152" lon="2.09118">
        <ele>256</ele>
        <time>2010-07-24T15:17:33Z</time>
      </trkpt>
      <trkpt lat="43.98179" lon="2.09107">
        <ele>260</ele>
        <time>2010-07-24T15:17:49Z</time>
      </trkpt>
      <trkpt lat="43.98194" lon="2.09098">
        <ele>264</ele>
        <time>2010-07-24T15:17:59Z</time>
      </trkpt>
      <trkpt lat="43.98211" lon="2.09086">
        <ele>267</ele>
        <time>2010-07-24T15:18:11Z</time>
      </trkpt>
      <trkpt lat="43.98236" lon="2.09077">
        <ele>269</ele>
        <time>2010-07-24T15:18:25Z</time>
      </trkpt>
      <trkpt lat="43.98254" lon="2.09068">
        <ele>269</ele>
        <time>2010-07-24T15:18:36Z</time>
      </trkpt>
      <trkpt lat="43.98283" lon="2.09048">
        <ele>271</ele>
        <time>2010-07-24T15:18:56Z</time>
      </trkpt>
      <trkpt lat="43.98294" lon="2.09043">
        <ele>272</ele>
        <time>2010-07-24T15:19:03Z</time>
      </trkpt>
      <trkpt lat="43.98308" lon="2.09034">
        <ele>272</ele>
        <time>2010-07-24T15:19:12Z</time>
      </trkpt>
      <trkpt lat="43.98316" lon="2.0903">
        <ele>273</ele>
        <time>2010-07-24T15:19:17Z</time>
      </trkpt>
      <trkpt lat="43.98337" lon="2.09018">
        <ele>274</ele>
        <time>2010-07-24T15:19:30Z</time>
      </trkpt>
      <trkpt lat="43.98355" lon="2.09008">
        <ele>273</ele>
        <time>2010-07-24T15:19:41Z</time>
      </trkpt>
      <trkpt lat="43.98373" lon="2.08996">
        <ele>274</ele>
        <time>2010-07-24T15:19:53Z</time>
      </trkpt>
      <trkpt lat="43.98404" lon="2.08974">
        <ele>275</ele>
        <time>2010-07-24T15:20:13Z</time>
      </trkpt>
      <trkpt lat="43.98423" lon="2.08963">
        <ele>278</ele>
        <time>2010-07-24T15:20:26Z</time>
      </trkpt>
      <trkpt lat="43.98428" lon="2.08963">
        <ele>279</ele>
        <time>2010-07-24T15:20:29Z</time>
      </trkpt>
      <trkpt lat="43.98432" lon="2.08962">
        <ele>280</ele>
        <time>2010-07-24T15:20:35Z</time>
      </trkpt>
      <trkpt lat="43.98436" lon="2.08956">
        <ele>279</ele>
        <time>2010-07-24T15:20:40Z</time>
      </trkpt>
      <trkpt lat="43.98441" lon="2.08957">
        <ele>279</ele>
        <time>2010-07-24T15:20:44Z</time>
      </trkpt>
      <trkpt lat="43.98448" lon="2.08985">
        <ele>278</ele>
        <time>2010-07-24T15:20:52Z</time>
      </trkpt>
      <trkpt lat="43.98446" lon="2.09012">
        <ele>279</ele>
        <time>2010-07-24T15:21:03Z</time>
      </trkpt>
      <trkpt lat="43.98445" lon="2.09018">
        <ele>280</ele>
        <time>2010-07-24T15:21:05Z</time>
      </trkpt>
      <trkpt lat="43.9844" lon="2.09065">
        <ele>282</ele>
        <time>2010-07-24T15:21:27Z</time>
      </trkpt>
      <trkpt lat="43.9844" lon="2.09097">
        <ele>284</ele>
        <time>2010-07-24T15:21:45Z</time>
      </trkpt>
      <trkpt lat="43.98438" lon="2.09147">
        <ele>288</ele>
        <time>2010-07-24T15:22:07Z</time>
      </trkpt>
      <trkpt lat="43.98436" lon="2.09179">
        <ele>289</ele>
        <time>2010-07-24T15:22:21Z</time>
      </trkpt>
      <trkpt lat="43.98436" lon="2.0919">
        <ele>289</ele>
        <time>2010-07-24T15:22:26Z</time>
      </trkpt>
      <trkpt lat="43.98435" lon="2.09198">
        <ele>290</ele>
        <time>2010-07-24T15:22:30Z</time>
      </trkpt>
      <trkpt lat="43.98433" lon="2.09224">
        <ele>291</ele>
        <time>2010-07-24T15:22:42Z</time>
      </trkpt>
      <trkpt lat="43.98431" lon="2.09266">
        <ele>296</ele>
        <time>2010-07-24T15:22:57Z</time>
      </trkpt>
      <trkpt lat="43.98432" lon="2.09309">
        <ele>299</ele>
        <time>2010-07-24T15:23:14Z</time>
      </trkpt>
      <trkpt lat="43.98431" lon="2.09353">
        <ele>301</ele>
        <time>2010-07-24T15:23:33Z</time>
      </trkpt>
      <trkpt lat="43.9845" lon="2.09381">
        <ele>297</ele>
        <time>2010-07-24T15:23:53Z</time>
      </trkpt>
      <trkpt lat="43.98472" lon="2.09391">
        <ele>297</ele>
        <time>2010-07-24T15:24:08Z</time>
      </trkpt>
      <trkpt lat="43.98492" lon="2.09402">
        <ele>292</ele>
        <time>2010-07-24T15:24:23Z</time>
      </trkpt>
      <trkpt lat="43.98525" lon="2.09423">
        <ele>289</ele>
        <time>2010-07-24T15:24:42Z</time>
      </trkpt>
      <trkpt lat="43.98551" lon="2.09442">
        <ele>285</ele>
        <time>2010-07-24T15:24:59Z</time>
      </trkpt>
      <trkpt lat="43.98579" lon="2.0947">
        <ele>283</ele>
        <time>2010-07-24T15:25:17Z</time>
      </trkpt>
      <trkpt lat="43.98605" lon="2.09493">
        <ele>281</ele>
        <time>2010-07-24T15:25:35Z</time>
      </trkpt>
      <trkpt lat="43.98623" lon="2.09503">
        <ele>281</ele>
        <time>2010-07-24T15:25:48Z</time>
      </trkpt>
      <trkpt lat="43.98644" lon="2.09547">
        <ele>283</ele>
        <time>2010-07-24T15:26:08Z</time>
      </trkpt>
      <trkpt lat="43.98646" lon="2.09604">
        <ele>279</ele>
        <time>2010-07-24T15:26:32Z</time>
      </trkpt>
      <trkpt lat="43.9865" lon="2.09645">
        <ele>277</ele>
        <time>2010-07-24T15:26:49Z</time>
      </trkpt>
      <trkpt lat="43.98659" lon="2.0968">
        <ele>282</ele>
        <time>2010-07-24T15:27:05Z</time>
      </trkpt>
      <trkpt lat="43.98672" lon="2.09708">
        <ele>284</ele>
        <time>2010-07-24T15:27:19Z</time>
      </trkpt>
      <trkpt lat="43.98694" lon="2.09744">
        <ele>283</ele>
        <time>2010-07-24T15:27:39Z</time>
      </trkpt>
      <trkpt lat="43.98716" lon="2.09768">
        <ele>284</ele>
        <time>2010-07-24T15:27:55Z</time>
      </trkpt>
      <trkpt lat="43.98736" lon="2.09788">
        <ele>285</ele>
        <time>2010-07-24T15:28:10Z</time>
      </trkpt>
      <trkpt lat="43.98764" lon="2.09812">
        <ele>284</ele>
        <time>2010-07-24T15:28:30Z</time>
      </trkpt>
      <trkpt lat="43.98771" lon="2.0982">
        <ele>285</ele>
        <time>2010-07-24T15:28:35Z</time>
      </trkpt>
      <trkpt lat="43.98791" lon="2.09857">
        <ele>285</ele>
        <time>2010-07-24T15:28:54Z</time>
      </trkpt>
      <trkpt lat="43.98813" lon="2.09875">
        <ele>287</ele>
        <time>2010-07-24T15:29:11Z</time>
      </trkpt>
      <trkpt lat="43.98838" lon="2.09874">
        <ele>288</ele>
        <time>2010-07-24T15:29:28Z</time>
      </trkpt>
      <trkpt lat="43.98881" lon="2.09873">
        <ele>291</ele>
        <time>2010-07-24T15:29:50Z</time>
      </trkpt>
      <trkpt lat="43.98921" lon="2.09889">
        <ele>291</ele>
        <time>2010-07-24T15:30:12Z</time>
      </trkpt>
      <trkpt lat="43.98948" lon="2.09918">
        <ele>292</ele>
        <time>2010-07-24T15:30:25Z</time>
      </trkpt>
      <trkpt lat="43.98965" lon="2.09947">
        <ele>293</ele>
        <time>2010-07-24T15:30:42Z</time>
      </trkpt>
      <trkpt lat="43.98988" lon="2.09983">
        <ele>295</ele>
        <time>2010-07-24T15:31:05Z</time>
      </trkpt>
      <trkpt lat="43.99013" lon="2.10016">
        <ele>295</ele>
        <time>2010-07-24T15:31:27Z</time>
      </trkpt>
      <trkpt lat="43.9904" lon="2.1005">
        <ele>297</ele>
        <time>2010-07-24T15:31:51Z</time>
      </trkpt>
      <trkpt lat="43.99042" lon="2.10079">
        <ele>298</ele>
        <time>2010-07-24T15:32:07Z</time>
      </trkpt>
      <trkpt lat="43.99011" lon="2.10108">
        <ele>296</ele>
        <time>2010-07-24T15:32:31Z</time>
      </trkpt>
      <trkpt lat="43.99" lon="2.1012">
        <ele>295</ele>
        <time>2010-07-24T15:32:40Z</time>
      </trkpt>
      <trkpt lat="43.98997" lon="2.10127">
        <ele>294</ele>
        <time>2010-07-24T15:32:44Z</time>
      </trkpt>
      <trkpt lat="43.98987" lon="2.10164">
        <ele>290</ele>
        <time>2010-07-24T15:33:02Z</time>
      </trkpt>
      <trkpt lat="43.98974" lon="2.102">
        <ele>288</ele>
        <time>2010-07-24T15:33:19Z</time>
      </trkpt>
      <trkpt lat="43.98971" lon="2.10204">
        <ele>288</ele>
        <time>2010-07-24T15:33:22Z</time>
      </trkpt>
      <trkpt lat="43.98962" lon="2.10217">
        <ele>288</ele>
        <time>2010-07-24T15:33:31Z</time>
      </trkpt>
      <trkpt lat="43.98944" lon="2.10239">
        <ele>287</ele>
        <time>2010-07-24T15:33:43Z</time>
      </trkpt>
      <trkpt lat="43.98931" lon="2.10272">
        <ele>284</ele>
        <time>2010-07-24T15:34:01Z</time>
      </trkpt>
      <trkpt lat="43.98915" lon="2.10307">
        <ele>280</ele>
        <time>2010-07-24T15:34:20Z</time>
      </trkpt>
      <trkpt lat="43.98895" lon="2.10348">
        <ele>278</ele>
        <time>2010-07-24T15:34:42Z</time>
      </trkpt>
      <trkpt lat="43.98872" lon="2.10406">
        <ele>275</ele>
        <time>2010-07-24T15:35:09Z</time>
      </trkpt>
      <trkpt lat="43.98854" lon="2.10457">
        <ele>273</ele>
        <time>2010-07-24T15:35:33Z</time>
      </trkpt>
      <trkpt lat="43.98839" lon="2.10507">
        <ele>270</ele>
        <time>2010-07-24T15:35:54Z</time>
      </trkpt>
      <trkpt lat="43.98833" lon="2.10563">
        <ele>266</ele>
        <time>2010-07-24T15:36:18Z</time>
      </trkpt>
      <trkpt lat="43.98829" lon="2.10616">
        <ele>263</ele>
        <time>2010-07-24T15:36:41Z</time>
      </trkpt>
      <trkpt lat="43.98824" lon="2.10674">
        <ele>260</ele>
        <time>2010-07-24T15:37:04Z</time>
      </trkpt>
      <trkpt lat="43.98817" lon="2.10751">
        <ele>255</ele>
        <time>2010-07-24T15:37:34Z</time>
      </trkpt>
      <trkpt lat="43.98816" lon="2.10809">
        <ele>252</ele>
        <time>2010-07-24T15:37:56Z</time>
      </trkpt>
      <trkpt lat="43.98818" lon="2.1084">
        <ele>252</ele>
        <time>2010-07-24T15:38:07Z</time>
      </trkpt>
      <trkpt lat="43.98826" lon="2.10886">
        <ele>250</ele>
        <time>2010-07-24T15:38:28Z</time>
      </trkpt>
      <trkpt lat="43.98833" lon="2.10907">
        <ele>248</ele>
        <time>2010-07-24T15:38:38Z</time>
      </trkpt>
      <trkpt lat="43.98833" lon="2.10939">
        <ele>246</ele>
        <time>2010-07-24T15:38:52Z</time>
      </trkpt>
      <trkpt lat="43.98828" lon="2.1097">
        <ele>243</ele>
        <time>2010-07-24T15:39:05Z</time>
      </trkpt>
      <trkpt lat="43.98827" lon="2.11015">
        <ele>242</ele>
        <time>2010-07-24T15:39:24Z</time>
      </trkpt>
      <trkpt lat="43.98823" lon="2.1106">
        <ele>242</ele>
        <time>2010-07-24T15:39:29Z</time>
      </trkpt>
      <trkpt lat="43.98828" lon="2.11105">
        <ele>248</ele>
        <time>2010-07-24T15:39:34Z</time>
      </trkpt>
      <trkpt lat="43.98836" lon="2.11134">
        <ele>251</ele>
        <time>2010-07-24T15:39:38Z</time>
      </trkpt>
      <trkpt lat="43.98846" lon="2.11176">
        <ele>256</ele>
        <time>2010-07-24T15:39:43Z</time>
      </trkpt>
      <trkpt lat="43.98864" lon="2.11233">
        <ele>260</ele>
        <time>2010-07-24T15:39:51Z</time>
      </trkpt>
      <trkpt lat="43.98874" lon="2.11256">
        <ele>260</ele>
        <time>2010-07-24T15:39:54Z</time>
      </trkpt>
      <trkpt lat="43.98891" lon="2.11298">
        <ele>264</ele>
        <time>2010-07-24T15:40:01Z</time>
      </trkpt>
      <trkpt lat="43.98877" lon="2.11369">
        <ele>259</ele>
        <time>2010-07-24T15:40:13Z</time>
      </trkpt>
      <trkpt lat="43.98872" lon="2.11383">
        <ele>259</ele>
        <time>2010-07-24T15:40:15Z</time>
      </trkpt>
      <trkpt lat="43.98859" lon="2.11411">
        <ele>257</ele>
        <time>2010-07-24T15:40:19Z</time>
      </trkpt>
      <trkpt lat="43.98839" lon="2.11444">
        <ele>257</ele>
        <time>2010-07-24T15:40:26Z</time>
      </trkpt>
      <trkpt lat="43.9884" lon="2.11445">
        <ele>260</ele>
        <time>2010-07-24T15:40:35Z</time>
      </trkpt>
      <trkpt lat="43.98838" lon="2.11458">
        <ele>261</ele>
        <time>2010-07-24T15:40:40Z</time>
      </trkpt>
      <trkpt lat="43.9881" lon="2.115">
        <ele>262</ele>
        <time>2010-07-24T15:40:56Z</time>
      </trkpt>
      <trkpt lat="43.98792" lon="2.11528">
        <ele>261</ele>
        <time>2010-07-24T15:41:14Z</time>
      </trkpt>
      <trkpt lat="43.98769" lon="2.11557">
        <ele>260</ele>
        <time>2010-07-24T15:41:31Z</time>
      </trkpt>
      <trkpt lat="43.98745" lon="2.11591">
        <ele>259</ele>
        <time>2010-07-24T15:41:51Z</time>
      </trkpt>
      <trkpt lat="43.98726" lon="2.11624">
        <ele>260</ele>
        <time>2010-07-24T15:42:08Z</time>
      </trkpt>
      <trkpt lat="43.98715" lon="2.11635">
        <ele>260</ele>
        <time>2010-07-24T15:42:15Z</time>
      </trkpt>
      <trkpt lat="43.98703" lon="2.11652">
        <ele>259</ele>
        <time>2010-07-24T15:42:24Z</time>
      </trkpt>
      <trkpt lat="43.98699" lon="2.11655">
        <ele>258</ele>
        <time>2010-07-24T15:42:27Z</time>
      </trkpt>
      <trkpt lat="43.98679" lon="2.11685">
        <ele>258</ele>
        <time>2010-07-24T15:42:45Z</time>
      </trkpt>
      <trkpt lat="43.98665" lon="2.11707">
        <ele>258</ele>
        <time>2010-07-24T15:42:59Z</time>
      </trkpt>
      <trkpt lat="43.98645" lon="2.11737">
        <ele>261</ele>
        <time>2010-07-24T15:43:17Z</time>
      </trkpt>
      <trkpt lat="43.98634" lon="2.11752">
        <ele>261</ele>
        <time>2010-07-24T15:43:26Z</time>
      </trkpt>
      <trkpt lat="43.9863" lon="2.11758">
        <ele>261</ele>
        <time>2010-07-24T15:43:30Z</time>
      </trkpt>
      <trkpt lat="43.98623" lon="2.11764">
        <ele>260</ele>
        <time>2010-07-24T15:43:35Z</time>
      </trkpt>
      <trkpt lat="43.98618" lon="2.11768">
        <ele>260</ele>
        <time>2010-07-24T15:43:40Z</time>
      </trkpt>
      <trkpt lat="43.98606" lon="2.11778">
        <ele>259</ele>
        <time>2010-07-24T15:43:50Z</time>
      </trkpt>
      <trkpt lat="43.98586" lon="2.11793">
        <ele>256</ele>
        <time>2010-07-24T15:44:02Z</time>
      </trkpt>
      <trkpt lat="43.98573" lon="2.11812">
        <ele>255</ele>
        <time>2010-07-24T15:44:15Z</time>
      </trkpt>
      <trkpt lat="43.98563" lon="2.11818">
        <ele>255</ele>
        <time>2010-07-24T15:44:21Z</time>
      </trkpt>
      <trkpt lat="43.98561" lon="2.11819">
        <ele>254</ele>
        <time>2010-07-24T15:44:23Z</time>
      </trkpt>
      <trkpt lat="43.98554" lon="2.11823">
        <ele>254</ele>
        <time>2010-07-24T15:44:28Z</time>
      </trkpt>
      <trkpt lat="43.98527" lon="2.11846">
        <ele>251</ele>
        <time>2010-07-24T15:44:41Z</time>
      </trkpt>
      <trkpt lat="43.985" lon="2.11868">
        <ele>249</ele>
        <time>2010-07-24T15:44:52Z</time>
      </trkpt>
      <trkpt lat="43.98475" lon="2.11884">
        <ele>243</ele>
        <time>2010-07-24T15:45:01Z</time>
      </trkpt>
      <trkpt lat="43.98461" lon="2.11893">
        <ele>241</ele>
        <time>2010-07-24T15:45:07Z</time>
      </trkpt>
      <trkpt lat="43.98413" lon="2.11922">
        <ele>247</ele>
        <time>2010-07-24T15:45:20Z</time>
      </trkpt>
      <trkpt lat="43.98393" lon="2.11939">
        <ele>249</ele>
        <time>2010-07-24T15:45:33Z</time>
      </trkpt>
      <trkpt lat="43.98373" lon="2.11955">
        <ele>251</ele>
        <time>2010-07-24T15:45:46Z</time>
      </trkpt>
      <trkpt lat="43.98349" lon="2.11962">
        <ele>249</ele>
        <time>2010-07-24T15:46:00Z</time>
      </trkpt>
      <trkpt lat="43.98329" lon="2.11971">
        <ele>248</ele>
        <time>2010-07-24T15:46:15Z</time>
      </trkpt>
      <trkpt lat="43.98312" lon="2.11981">
        <ele>249</ele>
        <time>2010-07-24T15:46:26Z</time>
      </trkpt>
      <trkpt lat="43.98288" lon="2.11992">
        <ele>251</ele>
        <time>2010-07-24T15:46:40Z</time>
      </trkpt>
      <trkpt lat="43.98271" lon="2.11999">
        <ele>253</ele>
        <time>2010-07-24T15:46:53Z</time>
      </trkpt>
      <trkpt lat="43.98258" lon="2.12014">
        <ele>252</ele>
        <time>2010-07-24T15:47:03Z</time>
      </trkpt>
      <trkpt lat="43.98265" lon="2.12042">
        <ele>252</ele>
        <time>2010-07-24T15:47:20Z</time>
      </trkpt>
      <trkpt lat="43.98265" lon="2.12053">
        <ele>252</ele>
        <time>2010-07-24T15:47:25Z</time>
      </trkpt>
      <trkpt lat="43.98263" lon="2.12061">
        <ele>252</ele>
        <time>2010-07-24T15:47:29Z</time>
      </trkpt>
      <trkpt lat="43.98249" lon="2.12087">
        <ele>252</ele>
        <time>2010-07-24T15:47:40Z</time>
      </trkpt>
      <trkpt lat="43.98223" lon="2.12096">
        <ele>249</ele>
        <time>2010-07-24T15:47:55Z</time>
      </trkpt>
      <trkpt lat="43.98205" lon="2.12104">
        <ele>250</ele>
        <time>2010-07-24T15:48:08Z</time>
      </trkpt>
      <trkpt lat="43.98182" lon="2.12112">
        <ele>252</ele>
        <time>2010-07-24T15:48:23Z</time>
      </trkpt>
      <trkpt lat="43.98163" lon="2.12121">
        <ele>251</ele>
        <time>2010-07-24T15:48:34Z</time>
      </trkpt>
      <trkpt lat="43.98148" lon="2.12126">
        <ele>255</ele>
        <time>2010-07-24T15:48:46Z</time>
      </trkpt>
      <trkpt lat="43.98138" lon="2.12131">
        <ele>256</ele>
        <time>2010-07-24T15:49:00Z</time>
      </trkpt>
      <trkpt lat="43.98122" lon="2.12137">
        <ele>259</ele>
        <time>2010-07-24T15:49:14Z</time>
      </trkpt>
      <trkpt lat="43.98096" lon="2.12147">
        <ele>260</ele>
        <time>2010-07-24T15:49:27Z</time>
      </trkpt>
      <trkpt lat="43.98076" lon="2.12155">
        <ele>261</ele>
        <time>2010-07-24T15:49:40Z</time>
      </trkpt>
      <trkpt lat="43.98059" lon="2.12164">
        <ele>260</ele>
        <time>2010-07-24T15:49:51Z</time>
      </trkpt>
      <trkpt lat="43.9805" lon="2.12168">
        <ele>259</ele>
        <time>2010-07-24T15:49:57Z</time>
      </trkpt>
      <trkpt lat="43.9803" lon="2.12174">
        <ele>255</ele>
        <time>2010-07-24T15:50:10Z</time>
      </trkpt>
      <trkpt lat="43.97993" lon="2.12185">
        <ele>252</ele>
        <time>2010-07-24T15:50:25Z</time>
      </trkpt>
      <trkpt lat="43.97966" lon="2.12182">
        <ele>251</ele>
        <time>2010-07-24T15:50:40Z</time>
      </trkpt>
      <trkpt lat="43.97944" lon="2.12161">
        <ele>258</ele>
        <time>2010-07-24T15:50:55Z</time>
      </trkpt>
      <trkpt lat="43.97941" lon="2.12158">
        <ele>258</ele>
        <time>2010-07-24T15:50:57Z</time>
      </trkpt>
      <trkpt lat="43.97935" lon="2.1216">
        <ele>259</ele>
        <time>2010-07-24T15:51:02Z</time>
      </trkpt>
      <trkpt lat="43.9793" lon="2.1217">
        <ele>260</ele>
        <time>2010-07-24T15:51:08Z</time>
      </trkpt>
      <trkpt lat="43.97909" lon="2.12183">
        <ele>261</ele>
        <time>2010-07-24T15:51:24Z</time>
      </trkpt>
      <trkpt lat="43.97887" lon="2.12181">
        <ele>261</ele>
        <time>2010-07-24T15:51:38Z</time>
      </trkpt>
      <trkpt lat="43.97874" lon="2.12179">
        <ele>260</ele>
        <time>2010-07-24T15:51:45Z</time>
      </trkpt>
      <trkpt lat="43.97864" lon="2.12173">
        <ele>260</ele>
        <time>2010-07-24T15:51:53Z</time>
      </trkpt>
      <trkpt lat="43.97852" lon="2.12184">
        <ele>260</ele>
        <time>2010-07-24T15:52:04Z</time>
      </trkpt>
      <trkpt lat="43.97834" lon="2.12188">
        <ele>259</ele>
        <time>2010-07-24T15:52:16Z</time>
      </trkpt>
      <trkpt lat="43.97831" lon="2.12189">
        <ele>259</ele>
        <time>2010-07-24T15:52:18Z</time>
      </trkpt>
      <trkpt lat="43.97824" lon="2.12191">
        <ele>259</ele>
        <time>2010-07-24T15:52:23Z</time>
      </trkpt>
      <trkpt lat="43.97798" lon="2.12197">
        <ele>261</ele>
        <time>2010-07-24T15:52:38Z</time>
      </trkpt>
      <trkpt lat="43.97788" lon="2.12197">
        <ele>260</ele>
        <time>2010-07-24T15:52:43Z</time>
      </trkpt>
      <trkpt lat="43.97775" lon="2.12191">
        <ele>259</ele>
        <time>2010-07-24T15:52:51Z</time>
      </trkpt>
      <trkpt lat="43.97771" lon="2.12191">
        <ele>259</ele>
        <time>2010-07-24T15:52:54Z</time>
      </trkpt>
      <trkpt lat="43.97751" lon="2.12198">
        <ele>256</ele>
        <time>2010-07-24T15:53:09Z</time>
      </trkpt>
      <trkpt lat="43.97746" lon="2.12202">
        <ele>255</ele>
        <time>2010-07-24T15:53:13Z</time>
      </trkpt>
      <trkpt lat="43.97725" lon="2.12211">
        <ele>256</ele>
        <time>2010-07-24T15:53:28Z</time>
      </trkpt>
      <trkpt lat="43.97707" lon="2.12225">
        <ele>254</ele>
        <time>2010-07-24T15:53:40Z</time>
      </trkpt>
      <trkpt lat="43.97693" lon="2.12241">
        <ele>256</ele>
        <time>2010-07-24T15:53:51Z</time>
      </trkpt>
      <trkpt lat="43.97676" lon="2.12262">
        <ele>258</ele>
        <time>2010-07-24T15:54:06Z</time>
      </trkpt>
      <trkpt lat="43.97667" lon="2.12281">
        <ele>254</ele>
        <time>2010-07-24T15:54:17Z</time>
      </trkpt>
      <trkpt lat="43.97654" lon="2.12301">
        <ele>250</ele>
        <time>2010-07-24T15:54:30Z</time>
      </trkpt>
      <trkpt lat="43.97644" lon="2.12321">
        <ele>248</ele>
        <time>2010-07-24T15:54:38Z</time>
      </trkpt>
      <trkpt lat="43.9764" lon="2.12336">
        <ele>249</ele>
        <time>2010-07-24T15:54:47Z</time>
      </trkpt>
      <trkpt lat="43.97636" lon="2.12349">
        <ele>250</ele>
        <time>2010-07-24T15:54:54Z</time>
      </trkpt>
      <trkpt lat="43.97633" lon="2.12358">
        <ele>251</ele>
        <time>2010-07-24T15:54:58Z</time>
      </trkpt>
      <trkpt lat="43.97626" lon="2.12384">
        <ele>252</ele>
        <time>2010-07-24T15:55:12Z</time>
      </trkpt>
      <trkpt lat="43.97623" lon="2.12416">
        <ele>251</ele>
        <time>2010-07-24T15:55:27Z</time>
      </trkpt>
      <trkpt lat="43.97623" lon="2.12426">
        <ele>251</ele>
        <time>2010-07-24T15:55:31Z</time>
      </trkpt>
      <trkpt lat="43.97621" lon="2.12456">
        <ele>249</ele>
        <time>2010-07-24T15:55:44Z</time>
      </trkpt>
      <trkpt lat="43.97622" lon="2.12478">
        <ele>247</ele>
        <time>2010-07-24T15:55:54Z</time>
      </trkpt>
      <trkpt lat="43.97623" lon="2.1249">
        <ele>245</ele>
        <time>2010-07-24T15:55:59Z</time>
      </trkpt>
      <trkpt lat="43.97603" lon="2.12503">
        <ele>239</ele>
        <time>2010-07-24T15:56:12Z</time>
      </trkpt>
      <trkpt lat="43.97585" lon="2.12481">
        <ele>236</ele>
        <time>2010-07-24T15:56:23Z</time>
      </trkpt>
      <trkpt lat="43.97577" lon="2.12445">
        <ele>236</ele>
        <time>2010-07-24T15:56:39Z</time>
      </trkpt>
      <trkpt lat="43.97571" lon="2.12416">
        <ele>241</ele>
        <time>2010-07-24T15:56:51Z</time>
      </trkpt>
      <trkpt lat="43.97564" lon="2.12393">
        <ele>249</ele>
        <time>2010-07-24T15:57:04Z</time>
      </trkpt>
      <trkpt lat="43.9756" lon="2.12384">
        <ele>250</ele>
        <time>2010-07-24T15:57:11Z</time>
      </trkpt>
      <trkpt lat="43.97564" lon="2.12354">
        <ele>248</ele>
        <time>2010-07-24T15:57:21Z</time>
      </trkpt>
      <trkpt lat="43.97563" lon="2.12335">
        <ele>246</ele>
        <time>2010-07-24T15:57:30Z</time>
      </trkpt>
      <trkpt lat="43.97563" lon="2.12316">
        <ele>246</ele>
        <time>2010-07-24T15:57:37Z</time>
      </trkpt>
      <trkpt lat="43.97574" lon="2.12278">
        <ele>246</ele>
        <time>2010-07-24T15:57:52Z</time>
      </trkpt>
      <trkpt lat="43.9759" lon="2.12257">
        <ele>247</ele>
        <time>2010-07-24T15:58:03Z</time>
      </trkpt>
      <trkpt lat="43.97592" lon="2.12246">
        <ele>247</ele>
        <time>2010-07-24T15:58:08Z</time>
      </trkpt>
      <trkpt lat="43.97592" lon="2.12242">
        <ele>248</ele>
        <time>2010-07-24T15:58:10Z</time>
      </trkpt>
      <trkpt lat="43.97587" lon="2.12229">
        <ele>248</ele>
        <time>2010-07-24T15:58:18Z</time>
      </trkpt>
      <trkpt lat="43.9759" lon="2.12215">
        <ele>248</ele>
        <time>2010-07-24T15:58:25Z</time>
      </trkpt>
      <trkpt lat="43.9759" lon="2.12207">
        <ele>249</ele>
        <time>2010-07-24T15:58:28Z</time>
      </trkpt>
      <trkpt lat="43.97585" lon="2.12206">
        <ele>249</ele>
        <time>2010-07-24T15:58:33Z</time>
      </trkpt>
      <trkpt lat="43.9758" lon="2.12207">
        <ele>249</ele>
        <time>2010-07-24T15:58:36Z</time>
      </trkpt>
      <trkpt lat="43.97567" lon="2.12219">
        <ele>252</ele>
        <time>2010-07-24T15:58:49Z</time>
      </trkpt>
      <trkpt lat="43.97549" lon="2.12229">
        <ele>252</ele>
        <time>2010-07-24T15:59:01Z</time>
      </trkpt>
      <trkpt lat="43.97531" lon="2.12239">
        <ele>256</ele>
        <time>2010-07-24T15:59:13Z</time>
      </trkpt>
      <trkpt lat="43.97504" lon="2.12256">
        <ele>257</ele>
        <time>2010-07-24T15:59:29Z</time>
      </trkpt>
      <trkpt lat="43.97473" lon="2.12273">
        <ele>254</ele>
        <time>2010-07-24T15:59:48Z</time>
      </trkpt>
      <trkpt lat="43.97442" lon="2.12289">
        <ele>254</ele>
        <time>2010-07-24T16:00:08Z</time>
      </trkpt>
      <trkpt lat="43.97426" lon="2.12299">
        <ele>254</ele>
        <time>2010-07-24T16:00:19Z</time>
      </trkpt>
      <trkpt lat="43.97401" lon="2.12314">
        <ele>255</ele>
        <time>2010-07-24T16:00:36Z</time>
      </trkpt>
      <trkpt lat="43.97382" lon="2.12325">
        <ele>256</ele>
        <time>2010-07-24T16:00:48Z</time>
      </trkpt>
      <trkpt lat="43.97344" lon="2.12347">
        <ele>255</ele>
        <time>2010-07-24T16:01:12Z</time>
      </trkpt>
      <trkpt lat="43.97303" lon="2.1237">
        <ele>255</ele>
        <time>2010-07-24T16:01:38Z</time>
      </trkpt>
      <trkpt lat="43.9728" lon="2.12384">
        <ele>256</ele>
        <time>2010-07-24T16:01:53Z</time>
      </trkpt>
      <trkpt lat="43.97259" lon="2.12399">
        <ele>258</ele>
        <time>2010-07-24T16:02:07Z</time>
      </trkpt>
      <trkpt lat="43.97238" lon="2.12408">
        <ele>257</ele>
        <time>2010-07-24T16:02:18Z</time>
      </trkpt>
      <trkpt lat="43.97229" lon="2.12414">
        <ele>256</ele>
        <time>2010-07-24T16:02:23Z</time>
      </trkpt>
      <trkpt lat="43.97209" lon="2.12425">
        <ele>256</ele>
        <time>2010-07-24T16:02:36Z</time>
      </trkpt>
      <trkpt lat="43.97206" lon="2.12427">
        <ele>256</ele>
        <time>2010-07-24T16:02:38Z</time>
      </trkpt>
      <trkpt lat="43.97187" lon="2.12437">
        <ele>255</ele>
        <time>2010-07-24T16:02:51Z</time>
      </trkpt>
      <trkpt lat="43.97164" lon="2.12452">
        <ele>251</ele>
        <time>2010-07-24T16:03:04Z</time>
      </trkpt>
      <trkpt lat="43.97151" lon="2.12465">
        <ele>250</ele>
        <time>2010-07-24T16:03:14Z</time>
      </trkpt>
      <trkpt lat="43.97122" lon="2.12486">
        <ele>251</ele>
        <time>2010-07-24T16:03:34Z</time>
      </trkpt>
      <trkpt lat="43.97117" lon="2.12489">
        <ele>251</ele>
        <time>2010-07-24T16:03:47Z</time>
      </trkpt>
      <trkpt lat="43.97107" lon="2.12492">
        <ele>251</ele>
        <time>2010-07-24T16:04:01Z</time>
      </trkpt>
      <trkpt lat="43.97092" lon="2.12501">
        <ele>250</ele>
        <time>2010-07-24T16:04:14Z</time>
      </trkpt>
      <trkpt lat="43.97078" lon="2.12505">
        <ele>250</ele>
        <time>2010-07-24T16:04:30Z</time>
      </trkpt>
      <trkpt lat="43.97078" lon="2.12506">
        <ele>250</ele>
        <time>2010-07-24T16:04:47Z</time>
      </trkpt>
      <trkpt lat="43.97079" lon="2.12505">
        <ele>250</ele>
        <time>2010-07-24T16:05:07Z</time>
      </trkpt>
      <trkpt lat="43.971" lon="2.12497">
        <ele>251</ele>
        <time>2010-07-24T16:05:23Z</time>
      </trkpt>
      <trkpt lat="43.97106" lon="2.12495">
        <ele>250</ele>
        <time>2010-07-24T16:05:31Z</time>
      </trkpt>
      <trkpt lat="43.97129" lon="2.12493">
        <ele>253</ele>
        <time>2010-07-24T16:05:49Z</time>
      </trkpt>
      <trkpt lat="43.97149" lon="2.12495">
        <ele>253</ele>
        <time>2010-07-24T16:06:04Z</time>
      </trkpt>
      <trkpt lat="43.97159" lon="2.12496">
        <ele>254</ele>
        <time>2010-07-24T16:06:12Z</time>
      </trkpt>
      <trkpt lat="43.97174" lon="2.12502">
        <ele>258</ele>
        <time>2010-07-24T16:06:24Z</time>
      </trkpt>
      <trkpt lat="43.97195" lon="2.12507">
        <ele>263</ele>
        <time>2010-07-24T16:06:41Z</time>
      </trkpt>
      <trkpt lat="43.97205" lon="2.12505">
        <ele>264</ele>
        <time>2010-07-24T16:06:50Z</time>
      </trkpt>
      <trkpt lat="43.97214" lon="2.12517">
        <ele>264</ele>
        <time>2010-07-24T16:07:04Z</time>
      </trkpt>
      <trkpt lat="43.97216" lon="2.12521">
        <ele>260</ele>
        <time>2010-07-24T16:07:25Z</time>
      </trkpt>
      <trkpt lat="43.97221" lon="2.12523">
        <ele>258</ele>
        <time>2010-07-24T16:07:36Z</time>
      </trkpt>
      <trkpt lat="43.97223" lon="2.12521">
        <ele>256</ele>
        <time>2010-07-24T16:07:57Z</time>
      </trkpt>
      <trkpt lat="43.97224" lon="2.12521">
        <ele>257</ele>
        <time>2010-07-24T16:08:01Z</time>
      </trkpt>
      <trkpt lat="43.97221" lon="2.12521">
        <ele>256</ele>
        <time>2010-07-24T16:08:12Z</time>
      </trkpt>
      <trkpt lat="43.9722" lon="2.1252">
        <ele>258</ele>
        <time>2010-07-24T16:08:41Z</time>
      </trkpt>
      <trkpt lat="43.97221" lon="2.1252">
        <ele>260</ele>
        <time>2010-07-24T16:08:50Z</time>
      </trkpt>
      <trkpt lat="43.9722" lon="2.12524">
        <ele>262</ele>
        <time>2010-07-24T16:09:11Z</time>
      </trkpt>
      <trkpt lat="43.9722" lon="2.12526">
        <ele>262</ele>
        <time>2010-07-24T16:09:25Z</time>
      </trkpt>
      <trkpt lat="43.97219" lon="2.1252">
        <ele>261</ele>
        <time>2010-07-24T16:09:46Z</time>
      </trkpt>
      <trkpt lat="43.97219" lon="2.1252">
        <ele>261</ele>
        <time>2010-07-24T16:09:47Z</time>
      </trkpt>
      <trkpt lat="43.9722" lon="2.1252">
        <ele>261</ele>
        <time>2010-07-24T16:09:57Z</time>
      </trkpt>
      <trkpt lat="43.9722" lon="2.12518">
        <ele>261</ele>
        <time>2010-07-24T16:10:11Z</time>
      </trkpt>
      <trkpt lat="43.97224" lon="2.1252">
        <ele>261</ele>
        <time>2010-07-24T16:10:23Z</time>
      </trkpt>
      <trkpt lat="43.97224" lon="2.1252">
        <ele>261</ele>
        <time>2010-07-24T16:10:31Z</time>
      </trkpt>
      <trkpt lat="43.97223" lon="2.1252">
        <ele>263</ele>
        <time>2010-07-24T16:10:41Z</time>
      </trkpt>
      <trkpt lat="43.97224" lon="2.12518">
        <ele>263</ele>
        <time>2010-07-24T16:10:44Z</time>
      </trkpt>
      <trkpt lat="43.97222" lon="2.12517">
        <ele>265</ele>
        <time>2010-07-24T16:10:55Z</time>
      </trkpt>
      <trkpt lat="43.97223" lon="2.12516">
        <ele>265</ele>
        <time>2010-07-24T16:11:00Z</time>
      </trkpt>
      <trkpt lat="43.97222" lon="2.12521">
        <ele>264</ele>
        <time>2010-07-24T16:11:10Z</time>
      </trkpt>
      <trkpt lat="43.97221" lon="2.12521">
        <ele>263</ele>
        <time>2010-07-24T16:11:35Z</time>
      </trkpt>
      <trkpt lat="43.97219" lon="2.12523">
        <ele>262</ele>
        <time>2010-07-24T16:12:04Z</time>
      </trkpt>
      <trkpt lat="43.97216" lon="2.12526">
        <ele>263</ele>
        <time>2010-07-24T16:12:12Z</time>
      </trkpt>
      <trkpt lat="43.97222" lon="2.12528">
        <ele>262</ele>
        <time>2010-07-24T16:12:40Z</time>
      </trkpt>
      <trkpt lat="43.97221" lon="2.12524">
        <ele>261</ele>
        <time>2010-07-24T16:12:55Z</time>
      </trkpt>
      <trkpt lat="43.9722" lon="2.12524">
        <ele>261</ele>
        <time>2010-07-24T16:13:02Z</time>
      </trkpt>
      <trkpt lat="43.97221" lon="2.12523">
        <ele>261</ele>
        <time>2010-07-24T16:13:04Z</time>
      </trkpt>
      <trkpt lat="43.97223" lon="2.12525">
        <ele>263</ele>
        <time>2010-07-24T16:13:13Z</time>
      </trkpt>
      <trkpt lat="43.9722" lon="2.12523">
        <ele>262</ele>
        <time>2010-07-24T16:13:28Z</time>
      </trkpt>
      <trkpt lat="43.97221" lon="2.1252">
        <ele>262</ele>
        <time>2010-07-24T16:13:44Z</time>
      </trkpt>
      <trkpt lat="43.97224" lon="2.12522">
        <ele>260</ele>
        <time>2010-07-24T16:14:36Z</time>
      </trkpt>
      <trkpt lat="43.97224" lon="2.12522">
        <ele>260</ele>
        <time>2010-07-24T16:15:04Z</time>
      </trkpt>
      <trkpt lat="43.9722" lon="2.12525">
        <ele>261</ele>
        <time>2010-07-24T16:15:24Z</time>
      </trkpt>
      <trkpt lat="43.9722" lon="2.12527">
        <ele>261</ele>
        <time>2010-07-24T16:15:31Z</time>
      </trkpt>
    </trkseg>
  </trk>
</gpx>